<?xml version="1.0" encoding="UTF-8" standalone="no" ?>
<gpx xmlns="http://www.topografix.com/GPX/1/1" xmlns:xsi="http://www.w3.org/2001/XMLSchema-instance" xsi:schemaLocation="http://www.topografix.com/GPX/1/1 http://www.topografix.com/GPX/1/1/gpx.xsd" version="1.1" creator="VisuGPX - https://www.visugpx.com">
  <metadata>
    <name>Boucle Pont de Cirou par La Calquière</name>
  </metadata>
  <trk>
    <name><![CDATA[PONTDECIROU]]></name>
    <trkseg>
      <trkpt lat="44.1418" lon="2.19806">
        <ele>282.28</ele>
        <time>2021-05-17T12:07:01Z</time>
      </trkpt>
      <trkpt lat="44.14189" lon="2.1981">
        <ele>282.28</ele>
        <time>2021-05-17T12:07:02Z</time>
      </trkpt>
      <trkpt lat="44.14201" lon="2.19811">
        <ele>282.77</ele>
        <time>2021-05-17T12:07:19Z</time>
      </trkpt>
      <trkpt lat="44.14202" lon="2.19811">
        <ele>284.21</ele>
        <time>2021-05-17T12:07:22Z</time>
      </trkpt>
      <trkpt lat="44.14203" lon="2.19812">
        <ele>282.77</ele>
        <time>2021-05-17T12:07:24Z</time>
      </trkpt>
      <trkpt lat="44.142" lon="2.19814">
        <ele>282.77</ele>
        <time>2021-05-17T12:07:34Z</time>
      </trkpt>
      <trkpt lat="44.14198" lon="2.19817">
        <ele>284.21</ele>
        <time>2021-05-17T12:07:38Z</time>
      </trkpt>
      <trkpt lat="44.14196" lon="2.19821">
        <ele>284.21</ele>
        <time>2021-05-17T12:07:42Z</time>
      </trkpt>
      <trkpt lat="44.14194" lon="2.19838">
        <ele>287.09</ele>
        <time>2021-05-17T12:07:55Z</time>
      </trkpt>
      <trkpt lat="44.14194" lon="2.19848">
        <ele>286.13</ele>
        <time>2021-05-17T12:08:02Z</time>
      </trkpt>
      <trkpt lat="44.14193" lon="2.1986">
        <ele>287.57</ele>
        <time>2021-05-17T12:08:10Z</time>
      </trkpt>
      <trkpt lat="44.14194" lon="2.19874">
        <ele>288.05</ele>
        <time>2021-05-17T12:08:19Z</time>
      </trkpt>
      <trkpt lat="44.14199" lon="2.19903">
        <ele>287.57</ele>
        <time>2021-05-17T12:08:34Z</time>
      </trkpt>
      <trkpt lat="44.14202" lon="2.1993">
        <ele>286.13</ele>
        <time>2021-05-17T12:08:50Z</time>
      </trkpt>
      <trkpt lat="44.14203" lon="2.1994">
        <ele>285.17</ele>
        <time>2021-05-17T12:08:57Z</time>
      </trkpt>
      <trkpt lat="44.14202" lon="2.19969">
        <ele>283.73</ele>
        <time>2021-05-17T12:09:15Z</time>
      </trkpt>
      <trkpt lat="44.14203" lon="2.19999">
        <ele>282.28</ele>
        <time>2021-05-17T12:09:33Z</time>
      </trkpt>
      <trkpt lat="44.14215" lon="2.20012">
        <ele>281.32</ele>
        <time>2021-05-17T12:09:49Z</time>
      </trkpt>
      <trkpt lat="44.14222" lon="2.20019">
        <ele>281.8</ele>
        <time>2021-05-17T12:09:56Z</time>
      </trkpt>
      <trkpt lat="44.14239" lon="2.2004">
        <ele>280.84</ele>
        <time>2021-05-17T12:10:14Z</time>
      </trkpt>
      <trkpt lat="44.14242" lon="2.2005">
        <ele>280.36</ele>
        <time>2021-05-17T12:10:21Z</time>
      </trkpt>
      <trkpt lat="44.14246" lon="2.2007">
        <ele>279.4</ele>
        <time>2021-05-17T12:10:36Z</time>
      </trkpt>
      <trkpt lat="44.14252" lon="2.20086">
        <ele>278.44</ele>
        <time>2021-05-17T12:10:47Z</time>
      </trkpt>
      <trkpt lat="44.14257" lon="2.20113">
        <ele>277.48</ele>
        <time>2021-05-17T12:11:04Z</time>
      </trkpt>
      <trkpt lat="44.1426" lon="2.20119">
        <ele>277</ele>
        <time>2021-05-17T12:11:09Z</time>
      </trkpt>
      <trkpt lat="44.14265" lon="2.2013">
        <ele>276.52</ele>
        <time>2021-05-17T12:11:15Z</time>
      </trkpt>
      <trkpt lat="44.14272" lon="2.20154">
        <ele>274.59</ele>
        <time>2021-05-17T12:11:30Z</time>
      </trkpt>
      <trkpt lat="44.14281" lon="2.20179">
        <ele>272.67</ele>
        <time>2021-05-17T12:11:45Z</time>
      </trkpt>
      <trkpt lat="44.14285" lon="2.20201">
        <ele>270.75</ele>
        <time>2021-05-17T12:12:00Z</time>
      </trkpt>
      <trkpt lat="44.14285" lon="2.20224">
        <ele>268.83</ele>
        <time>2021-05-17T12:12:17Z</time>
      </trkpt>
      <trkpt lat="44.14277" lon="2.20246">
        <ele>266.42</ele>
        <time>2021-05-17T12:12:35Z</time>
      </trkpt>
      <trkpt lat="44.1427" lon="2.20266">
        <ele>264.5</ele>
        <time>2021-05-17T12:12:49Z</time>
      </trkpt>
      <trkpt lat="44.14269" lon="2.20289">
        <ele>263.06</ele>
        <time>2021-05-17T12:13:02Z</time>
      </trkpt>
      <trkpt lat="44.14272" lon="2.20307">
        <ele>262.1</ele>
        <time>2021-05-17T12:13:16Z</time>
      </trkpt>
      <trkpt lat="44.14282" lon="2.2033">
        <ele>259.69</ele>
        <time>2021-05-17T12:13:34Z</time>
      </trkpt>
      <trkpt lat="44.14286" lon="2.20351">
        <ele>257.77</ele>
        <time>2021-05-17T12:13:50Z</time>
      </trkpt>
      <trkpt lat="44.14289" lon="2.20359">
        <ele>256.81</ele>
        <time>2021-05-17T12:13:57Z</time>
      </trkpt>
      <trkpt lat="44.14292" lon="2.20382">
        <ele>254.89</ele>
        <time>2021-05-17T12:14:12Z</time>
      </trkpt>
      <trkpt lat="44.14296" lon="2.20401">
        <ele>252.48</ele>
        <time>2021-05-17T12:14:26Z</time>
      </trkpt>
      <trkpt lat="44.14303" lon="2.20418">
        <ele>251.04</ele>
        <time>2021-05-17T12:14:40Z</time>
      </trkpt>
      <trkpt lat="44.14312" lon="2.2044">
        <ele>249.12</ele>
        <time>2021-05-17T12:14:54Z</time>
      </trkpt>
      <trkpt lat="44.14315" lon="2.20464">
        <ele>247.68</ele>
        <time>2021-05-17T12:15:08Z</time>
      </trkpt>
      <trkpt lat="44.1432" lon="2.20472">
        <ele>247.2</ele>
        <time>2021-05-17T12:15:13Z</time>
      </trkpt>
      <trkpt lat="44.14326" lon="2.20504">
        <ele>245.27</ele>
        <time>2021-05-17T12:15:30Z</time>
      </trkpt>
      <trkpt lat="44.14327" lon="2.20528">
        <ele>243.35</ele>
        <time>2021-05-17T12:15:45Z</time>
      </trkpt>
      <trkpt lat="44.14328" lon="2.20549">
        <ele>241.91</ele>
        <time>2021-05-17T12:16:01Z</time>
      </trkpt>
      <trkpt lat="44.14327" lon="2.20567">
        <ele>240.47</ele>
        <time>2021-05-17T12:16:12Z</time>
      </trkpt>
      <trkpt lat="44.14327" lon="2.20572">
        <ele>239.99</ele>
        <time>2021-05-17T12:16:14Z</time>
      </trkpt>
      <trkpt lat="44.14327" lon="2.206">
        <ele>237.58</ele>
        <time>2021-05-17T12:16:31Z</time>
      </trkpt>
      <trkpt lat="44.14326" lon="2.20623">
        <ele>236.14</ele>
        <time>2021-05-17T12:16:45Z</time>
      </trkpt>
      <trkpt lat="44.14328" lon="2.20656">
        <ele>233.26</ele>
        <time>2021-05-17T12:17:03Z</time>
      </trkpt>
      <trkpt lat="44.14328" lon="2.20664">
        <ele>233.26</ele>
        <time>2021-05-17T12:17:07Z</time>
      </trkpt>
      <trkpt lat="44.14325" lon="2.20686">
        <ele>231.33</ele>
        <time>2021-05-17T12:17:21Z</time>
      </trkpt>
      <trkpt lat="44.14322" lon="2.20707">
        <ele>230.37</ele>
        <time>2021-05-17T12:17:35Z</time>
      </trkpt>
      <trkpt lat="44.14324" lon="2.2073">
        <ele>228.45</ele>
        <time>2021-05-17T12:17:48Z</time>
      </trkpt>
      <trkpt lat="44.14329" lon="2.20738">
        <ele>227.97</ele>
        <time>2021-05-17T12:17:54Z</time>
      </trkpt>
      <trkpt lat="44.14335" lon="2.20748">
        <ele>227.49</ele>
        <time>2021-05-17T12:17:59Z</time>
      </trkpt>
      <trkpt lat="44.14343" lon="2.20767">
        <ele>225.57</ele>
        <time>2021-05-17T12:18:12Z</time>
      </trkpt>
      <trkpt lat="44.14353" lon="2.20795">
        <ele>223.16</ele>
        <time>2021-05-17T12:18:28Z</time>
      </trkpt>
      <trkpt lat="44.14365" lon="2.20818">
        <ele>220.76</ele>
        <time>2021-05-17T12:18:43Z</time>
      </trkpt>
      <trkpt lat="44.14377" lon="2.20844">
        <ele>218.84</ele>
        <time>2021-05-17T12:19:00Z</time>
      </trkpt>
      <trkpt lat="44.14382" lon="2.20857">
        <ele>217.4</ele>
        <time>2021-05-17T12:19:09Z</time>
      </trkpt>
      <trkpt lat="44.14384" lon="2.20868">
        <ele>216.91</ele>
        <time>2021-05-17T12:19:15Z</time>
      </trkpt>
      <trkpt lat="44.14393" lon="2.20889">
        <ele>214.51</ele>
        <time>2021-05-17T12:19:31Z</time>
      </trkpt>
      <trkpt lat="44.14404" lon="2.20915">
        <ele>212.11</ele>
        <time>2021-05-17T12:19:47Z</time>
      </trkpt>
      <trkpt lat="44.14412" lon="2.20932">
        <ele>211.15</ele>
        <time>2021-05-17T12:19:58Z</time>
      </trkpt>
      <trkpt lat="44.14416" lon="2.20937">
        <ele>209.7</ele>
        <time>2021-05-17T12:20:02Z</time>
      </trkpt>
      <trkpt lat="44.14426" lon="2.20933">
        <ele>208.74</ele>
        <time>2021-05-17T12:20:13Z</time>
      </trkpt>
      <trkpt lat="44.14424" lon="2.2093">
        <ele>207.78</ele>
        <time>2021-05-17T12:20:22Z</time>
      </trkpt>
      <trkpt lat="44.14421" lon="2.20915">
        <ele>205.86</ele>
        <time>2021-05-17T12:20:33Z</time>
      </trkpt>
      <trkpt lat="44.14415" lon="2.20885">
        <ele>203.94</ele>
        <time>2021-05-17T12:20:51Z</time>
      </trkpt>
      <trkpt lat="44.1442" lon="2.20879">
        <ele>203.94</ele>
        <time>2021-05-17T12:20:55Z</time>
      </trkpt>
      <trkpt lat="44.14427" lon="2.20885">
        <ele>202.01</ele>
        <time>2021-05-17T12:21:05Z</time>
      </trkpt>
      <trkpt lat="44.1443" lon="2.20905">
        <ele>202.49</ele>
        <time>2021-05-17T12:21:19Z</time>
      </trkpt>
      <trkpt lat="44.14432" lon="2.20918">
        <ele>202.49</ele>
        <time>2021-05-17T12:21:28Z</time>
      </trkpt>
      <trkpt lat="44.1444" lon="2.20944">
        <ele>202.49</ele>
        <time>2021-05-17T12:21:45Z</time>
      </trkpt>
      <trkpt lat="44.14443" lon="2.20965">
        <ele>202.49</ele>
        <time>2021-05-17T12:22:01Z</time>
      </trkpt>
      <trkpt lat="44.14447" lon="2.20988">
        <ele>202.49</ele>
        <time>2021-05-17T12:22:19Z</time>
      </trkpt>
      <trkpt lat="44.14457" lon="2.21013">
        <ele>202.49</ele>
        <time>2021-05-17T12:22:37Z</time>
      </trkpt>
      <trkpt lat="44.14464" lon="2.21039">
        <ele>202.49</ele>
        <time>2021-05-17T12:22:52Z</time>
      </trkpt>
      <trkpt lat="44.14472" lon="2.21063">
        <ele>202.49</ele>
        <time>2021-05-17T12:23:06Z</time>
      </trkpt>
      <trkpt lat="44.14483" lon="2.2109">
        <ele>202.01</ele>
        <time>2021-05-17T12:23:23Z</time>
      </trkpt>
      <trkpt lat="44.14495" lon="2.21117">
        <ele>202.01</ele>
        <time>2021-05-17T12:23:41Z</time>
      </trkpt>
      <trkpt lat="44.14508" lon="2.21138">
        <ele>202.01</ele>
        <time>2021-05-17T12:23:58Z</time>
      </trkpt>
      <trkpt lat="44.14526" lon="2.21163">
        <ele>201.05</ele>
        <time>2021-05-17T12:24:15Z</time>
      </trkpt>
      <trkpt lat="44.14539" lon="2.21182">
        <ele>200.57</ele>
        <time>2021-05-17T12:24:30Z</time>
      </trkpt>
      <trkpt lat="44.14552" lon="2.21204">
        <ele>201.05</ele>
        <time>2021-05-17T12:24:46Z</time>
      </trkpt>
      <trkpt lat="44.14555" lon="2.21225">
        <ele>200.57</ele>
        <time>2021-05-17T12:25:00Z</time>
      </trkpt>
      <trkpt lat="44.14555" lon="2.21249">
        <ele>200.09</ele>
        <time>2021-05-17T12:25:16Z</time>
      </trkpt>
      <trkpt lat="44.14558" lon="2.21269">
        <ele>200.57</ele>
        <time>2021-05-17T12:25:31Z</time>
      </trkpt>
      <trkpt lat="44.14564" lon="2.21297">
        <ele>200.09</ele>
        <time>2021-05-17T12:25:47Z</time>
      </trkpt>
      <trkpt lat="44.1457" lon="2.21321">
        <ele>200.09</ele>
        <time>2021-05-17T12:26:05Z</time>
      </trkpt>
      <trkpt lat="44.14581" lon="2.21342">
        <ele>200.57</ele>
        <time>2021-05-17T12:26:21Z</time>
      </trkpt>
      <trkpt lat="44.14593" lon="2.21359">
        <ele>199.13</ele>
        <time>2021-05-17T12:26:37Z</time>
      </trkpt>
      <trkpt lat="44.14601" lon="2.21372">
        <ele>198.65</ele>
        <time>2021-05-17T12:26:47Z</time>
      </trkpt>
      <trkpt lat="44.14617" lon="2.21398">
        <ele>200.57</ele>
        <time>2021-05-17T12:27:02Z</time>
      </trkpt>
      <trkpt lat="44.14628" lon="2.21416">
        <ele>201.53</ele>
        <time>2021-05-17T12:27:14Z</time>
      </trkpt>
      <trkpt lat="44.14645" lon="2.21433">
        <ele>202.01</ele>
        <time>2021-05-17T12:27:29Z</time>
      </trkpt>
      <trkpt lat="44.14659" lon="2.21448">
        <ele>202.49</ele>
        <time>2021-05-17T12:27:42Z</time>
      </trkpt>
      <trkpt lat="44.14677" lon="2.2146">
        <ele>202.01</ele>
        <time>2021-05-17T12:27:58Z</time>
      </trkpt>
      <trkpt lat="44.1468" lon="2.21462">
        <ele>201.05</ele>
        <time>2021-05-17T12:28:01Z</time>
      </trkpt>
      <trkpt lat="44.14696" lon="2.21473">
        <ele>200.57</ele>
        <time>2021-05-17T12:28:15Z</time>
      </trkpt>
      <trkpt lat="44.14716" lon="2.21473">
        <ele>199.61</ele>
        <time>2021-05-17T12:28:31Z</time>
      </trkpt>
      <trkpt lat="44.14733" lon="2.21473">
        <ele>199.61</ele>
        <time>2021-05-17T12:28:46Z</time>
      </trkpt>
      <trkpt lat="44.14752" lon="2.21477">
        <ele>199.13</ele>
        <time>2021-05-17T12:29:02Z</time>
      </trkpt>
      <trkpt lat="44.14769" lon="2.21484">
        <ele>199.13</ele>
        <time>2021-05-17T12:29:15Z</time>
      </trkpt>
      <trkpt lat="44.1478" lon="2.21495">
        <ele>198.65</ele>
        <time>2021-05-17T12:29:26Z</time>
      </trkpt>
      <trkpt lat="44.14796" lon="2.21503">
        <ele>197.69</ele>
        <time>2021-05-17T12:29:42Z</time>
      </trkpt>
      <trkpt lat="44.14812" lon="2.21509">
        <ele>196.25</ele>
        <time>2021-05-17T12:29:57Z</time>
      </trkpt>
      <trkpt lat="44.1483" lon="2.2151">
        <ele>196.25</ele>
        <time>2021-05-17T12:30:14Z</time>
      </trkpt>
      <trkpt lat="44.14836" lon="2.21512">
        <ele>195.77</ele>
        <time>2021-05-17T12:30:30Z</time>
      </trkpt>
      <trkpt lat="44.14845" lon="2.2152">
        <ele>196.73</ele>
        <time>2021-05-17T12:30:45Z</time>
      </trkpt>
      <trkpt lat="44.1486" lon="2.21524">
        <ele>196.73</ele>
        <time>2021-05-17T12:30:58Z</time>
      </trkpt>
      <trkpt lat="44.14871" lon="2.21523">
        <ele>196.73</ele>
        <time>2021-05-17T12:31:13Z</time>
      </trkpt>
      <trkpt lat="44.14885" lon="2.21535">
        <ele>197.69</ele>
        <time>2021-05-17T12:31:28Z</time>
      </trkpt>
      <trkpt lat="44.14902" lon="2.21547">
        <ele>197.21</ele>
        <time>2021-05-17T12:31:44Z</time>
      </trkpt>
      <trkpt lat="44.14915" lon="2.21543">
        <ele>198.17</ele>
        <time>2021-05-17T12:31:57Z</time>
      </trkpt>
      <trkpt lat="44.14924" lon="2.2153">
        <ele>196.73</ele>
        <time>2021-05-17T12:32:11Z</time>
      </trkpt>
      <trkpt lat="44.14932" lon="2.21528">
        <ele>196.25</ele>
        <time>2021-05-17T12:32:22Z</time>
      </trkpt>
      <trkpt lat="44.14941" lon="2.21524">
        <ele>196.25</ele>
        <time>2021-05-17T12:32:39Z</time>
      </trkpt>
      <trkpt lat="44.1495" lon="2.21516">
        <ele>195.77</ele>
        <time>2021-05-17T12:32:49Z</time>
      </trkpt>
      <trkpt lat="44.14957" lon="2.21507">
        <ele>194.8</ele>
        <time>2021-05-17T12:33:02Z</time>
      </trkpt>
      <trkpt lat="44.14968" lon="2.21497">
        <ele>194.32</ele>
        <time>2021-05-17T12:33:15Z</time>
      </trkpt>
      <trkpt lat="44.14977" lon="2.21488">
        <ele>194.32</ele>
        <time>2021-05-17T12:33:29Z</time>
      </trkpt>
      <trkpt lat="44.15007" lon="2.21464">
        <ele>194.32</ele>
        <time>2021-05-17T12:33:45Z</time>
      </trkpt>
      <trkpt lat="44.15014" lon="2.21444">
        <ele>195.28</ele>
        <time>2021-05-17T12:34:00Z</time>
      </trkpt>
      <trkpt lat="44.15019" lon="2.21429">
        <ele>196.25</ele>
        <time>2021-05-17T12:34:16Z</time>
      </trkpt>
      <trkpt lat="44.15024" lon="2.21411">
        <ele>196.73</ele>
        <time>2021-05-17T12:34:31Z</time>
      </trkpt>
      <trkpt lat="44.15027" lon="2.21395">
        <ele>196.73</ele>
        <time>2021-05-17T12:34:47Z</time>
      </trkpt>
      <trkpt lat="44.15034" lon="2.21377">
        <ele>197.21</ele>
        <time>2021-05-17T12:35:01Z</time>
      </trkpt>
      <trkpt lat="44.15039" lon="2.2136">
        <ele>197.21</ele>
        <time>2021-05-17T12:35:16Z</time>
      </trkpt>
      <trkpt lat="44.15042" lon="2.21344">
        <ele>197.69</ele>
        <time>2021-05-17T12:35:30Z</time>
      </trkpt>
      <trkpt lat="44.15049" lon="2.21327">
        <ele>197.69</ele>
        <time>2021-05-17T12:35:44Z</time>
      </trkpt>
      <trkpt lat="44.15055" lon="2.21306">
        <ele>198.65</ele>
        <time>2021-05-17T12:35:59Z</time>
      </trkpt>
      <trkpt lat="44.15055" lon="2.21285">
        <ele>198.65</ele>
        <time>2021-05-17T12:36:12Z</time>
      </trkpt>
      <trkpt lat="44.15061" lon="2.21259">
        <ele>199.61</ele>
        <time>2021-05-17T12:36:29Z</time>
      </trkpt>
      <trkpt lat="44.15069" lon="2.21238">
        <ele>200.09</ele>
        <time>2021-05-17T12:36:45Z</time>
      </trkpt>
      <trkpt lat="44.15071" lon="2.2123">
        <ele>200.09</ele>
        <time>2021-05-17T12:36:56Z</time>
      </trkpt>
      <trkpt lat="44.15074" lon="2.21211">
        <ele>200.57</ele>
        <time>2021-05-17T12:37:09Z</time>
      </trkpt>
      <trkpt lat="44.15074" lon="2.21192">
        <ele>201.05</ele>
        <time>2021-05-17T12:37:24Z</time>
      </trkpt>
      <trkpt lat="44.15079" lon="2.21164">
        <ele>201.05</ele>
        <time>2021-05-17T12:37:40Z</time>
      </trkpt>
      <trkpt lat="44.15084" lon="2.21143">
        <ele>201.05</ele>
        <time>2021-05-17T12:37:56Z</time>
      </trkpt>
      <trkpt lat="44.15088" lon="2.21126">
        <ele>201.53</ele>
        <time>2021-05-17T12:38:10Z</time>
      </trkpt>
      <trkpt lat="44.1509" lon="2.21108">
        <ele>201.53</ele>
        <time>2021-05-17T12:38:25Z</time>
      </trkpt>
      <trkpt lat="44.15089" lon="2.21084">
        <ele>200.09</ele>
        <time>2021-05-17T12:38:40Z</time>
      </trkpt>
      <trkpt lat="44.15094" lon="2.21063">
        <ele>199.61</ele>
        <time>2021-05-17T12:38:55Z</time>
      </trkpt>
      <trkpt lat="44.15097" lon="2.21041">
        <ele>199.13</ele>
        <time>2021-05-17T12:39:11Z</time>
      </trkpt>
      <trkpt lat="44.15106" lon="2.21018">
        <ele>199.13</ele>
        <time>2021-05-17T12:39:26Z</time>
      </trkpt>
      <trkpt lat="44.15112" lon="2.20997">
        <ele>199.13</ele>
        <time>2021-05-17T12:39:38Z</time>
      </trkpt>
      <trkpt lat="44.15117" lon="2.20981">
        <ele>199.13</ele>
        <time>2021-05-17T12:39:48Z</time>
      </trkpt>
      <trkpt lat="44.15124" lon="2.20956">
        <ele>199.13</ele>
        <time>2021-05-17T12:40:02Z</time>
      </trkpt>
      <trkpt lat="44.15138" lon="2.20927">
        <ele>199.61</ele>
        <time>2021-05-17T12:40:16Z</time>
      </trkpt>
      <trkpt lat="44.1515" lon="2.20908">
        <ele>199.13</ele>
        <time>2021-05-17T12:40:31Z</time>
      </trkpt>
      <trkpt lat="44.15156" lon="2.209">
        <ele>198.17</ele>
        <time>2021-05-17T12:40:43Z</time>
      </trkpt>
      <trkpt lat="44.15167" lon="2.20889">
        <ele>198.65</ele>
        <time>2021-05-17T12:40:57Z</time>
      </trkpt>
      <trkpt lat="44.1518" lon="2.20872">
        <ele>200.09</ele>
        <time>2021-05-17T12:41:11Z</time>
      </trkpt>
      <trkpt lat="44.15181" lon="2.20871">
        <ele>200.09</ele>
        <time>2021-05-17T12:41:12Z</time>
      </trkpt>
      <trkpt lat="44.15195" lon="2.20857">
        <ele>200.09</ele>
        <time>2021-05-17T12:41:27Z</time>
      </trkpt>
      <trkpt lat="44.15205" lon="2.20845">
        <ele>200.57</ele>
        <time>2021-05-17T12:41:43Z</time>
      </trkpt>
      <trkpt lat="44.15216" lon="2.20831">
        <ele>199.61</ele>
        <time>2021-05-17T12:42:00Z</time>
      </trkpt>
      <trkpt lat="44.1523" lon="2.20826">
        <ele>199.61</ele>
        <time>2021-05-17T12:42:14Z</time>
      </trkpt>
      <trkpt lat="44.15244" lon="2.20823">
        <ele>199.61</ele>
        <time>2021-05-17T12:42:28Z</time>
      </trkpt>
      <trkpt lat="44.15264" lon="2.20827">
        <ele>199.61</ele>
        <time>2021-05-17T12:42:44Z</time>
      </trkpt>
      <trkpt lat="44.15282" lon="2.20833">
        <ele>199.13</ele>
        <time>2021-05-17T12:43:02Z</time>
      </trkpt>
      <trkpt lat="44.15299" lon="2.20843">
        <ele>199.13</ele>
        <time>2021-05-17T12:43:18Z</time>
      </trkpt>
      <trkpt lat="44.15312" lon="2.20851">
        <ele>199.61</ele>
        <time>2021-05-17T12:43:33Z</time>
      </trkpt>
      <trkpt lat="44.15328" lon="2.20863">
        <ele>199.61</ele>
        <time>2021-05-17T12:43:49Z</time>
      </trkpt>
      <trkpt lat="44.15342" lon="2.20875">
        <ele>199.61</ele>
        <time>2021-05-17T12:44:05Z</time>
      </trkpt>
      <trkpt lat="44.15356" lon="2.2089">
        <ele>199.61</ele>
        <time>2021-05-17T12:44:21Z</time>
      </trkpt>
      <trkpt lat="44.15368" lon="2.20904">
        <ele>200.09</ele>
        <time>2021-05-17T12:44:37Z</time>
      </trkpt>
      <trkpt lat="44.15378" lon="2.2092">
        <ele>200.09</ele>
        <time>2021-05-17T12:44:53Z</time>
      </trkpt>
      <trkpt lat="44.15383" lon="2.20933">
        <ele>201.05</ele>
        <time>2021-05-17T12:45:01Z</time>
      </trkpt>
      <trkpt lat="44.15386" lon="2.20947">
        <ele>201.53</ele>
        <time>2021-05-17T12:45:15Z</time>
      </trkpt>
      <trkpt lat="44.15392" lon="2.2096">
        <ele>201.53</ele>
        <time>2021-05-17T12:45:29Z</time>
      </trkpt>
      <trkpt lat="44.15399" lon="2.20973">
        <ele>201.53</ele>
        <time>2021-05-17T12:45:44Z</time>
      </trkpt>
      <trkpt lat="44.1541" lon="2.20988">
        <ele>201.53</ele>
        <time>2021-05-17T12:45:59Z</time>
      </trkpt>
      <trkpt lat="44.15425" lon="2.21001">
        <ele>201.53</ele>
        <time>2021-05-17T12:46:16Z</time>
      </trkpt>
      <trkpt lat="44.15438" lon="2.21004">
        <ele>202.01</ele>
        <time>2021-05-17T12:46:27Z</time>
      </trkpt>
      <trkpt lat="44.15452" lon="2.21012">
        <ele>202.49</ele>
        <time>2021-05-17T12:46:42Z</time>
      </trkpt>
      <trkpt lat="44.15467" lon="2.21023">
        <ele>201.05</ele>
        <time>2021-05-17T12:46:57Z</time>
      </trkpt>
      <trkpt lat="44.15485" lon="2.21032">
        <ele>201.05</ele>
        <time>2021-05-17T12:47:14Z</time>
      </trkpt>
      <trkpt lat="44.15491" lon="2.21032">
        <ele>202.49</ele>
        <time>2021-05-17T12:47:21Z</time>
      </trkpt>
      <trkpt lat="44.15502" lon="2.21026">
        <ele>202.98</ele>
        <time>2021-05-17T12:47:35Z</time>
      </trkpt>
      <trkpt lat="44.15503" lon="2.21023">
        <ele>202.98</ele>
        <time>2021-05-17T12:47:37Z</time>
      </trkpt>
      <trkpt lat="44.15515" lon="2.21009">
        <ele>204.42</ele>
        <time>2021-05-17T12:47:53Z</time>
      </trkpt>
      <trkpt lat="44.15523" lon="2.2099">
        <ele>204.9</ele>
        <time>2021-05-17T12:48:07Z</time>
      </trkpt>
      <trkpt lat="44.15526" lon="2.20979">
        <ele>205.38</ele>
        <time>2021-05-17T12:48:14Z</time>
      </trkpt>
      <trkpt lat="44.15526" lon="2.20963">
        <ele>204.9</ele>
        <time>2021-05-17T12:48:25Z</time>
      </trkpt>
      <trkpt lat="44.15527" lon="2.2094">
        <ele>203.46</ele>
        <time>2021-05-17T12:48:40Z</time>
      </trkpt>
      <trkpt lat="44.15528" lon="2.20929">
        <ele>203.46</ele>
        <time>2021-05-17T12:48:54Z</time>
      </trkpt>
      <trkpt lat="44.15529" lon="2.20903">
        <ele>203.46</ele>
        <time>2021-05-17T12:49:10Z</time>
      </trkpt>
      <trkpt lat="44.15527" lon="2.20878">
        <ele>203.46</ele>
        <time>2021-05-17T12:49:24Z</time>
      </trkpt>
      <trkpt lat="44.15523" lon="2.20856">
        <ele>203.46</ele>
        <time>2021-05-17T12:49:38Z</time>
      </trkpt>
      <trkpt lat="44.15521" lon="2.2085">
        <ele>204.9</ele>
        <time>2021-05-17T12:49:42Z</time>
      </trkpt>
      <trkpt lat="44.15514" lon="2.20827">
        <ele>204.9</ele>
        <time>2021-05-17T12:49:58Z</time>
      </trkpt>
      <trkpt lat="44.15508" lon="2.20812">
        <ele>204.9</ele>
        <time>2021-05-17T12:50:12Z</time>
      </trkpt>
      <trkpt lat="44.15501" lon="2.20793">
        <ele>204.9</ele>
        <time>2021-05-17T12:50:26Z</time>
      </trkpt>
      <trkpt lat="44.155" lon="2.20793">
        <ele>204.9</ele>
        <time>2021-05-17T12:50:27Z</time>
      </trkpt>
      <trkpt lat="44.15491" lon="2.20769">
        <ele>204.9</ele>
        <time>2021-05-17T12:50:42Z</time>
      </trkpt>
      <trkpt lat="44.15483" lon="2.20746">
        <ele>204.9</ele>
        <time>2021-05-17T12:50:58Z</time>
      </trkpt>
      <trkpt lat="44.15471" lon="2.2073">
        <ele>206.34</ele>
        <time>2021-05-17T12:51:14Z</time>
      </trkpt>
      <trkpt lat="44.15469" lon="2.20714">
        <ele>208.26</ele>
        <time>2021-05-17T12:51:25Z</time>
      </trkpt>
      <trkpt lat="44.15464" lon="2.20698">
        <ele>211.15</ele>
        <time>2021-05-17T12:51:39Z</time>
      </trkpt>
      <trkpt lat="44.1546" lon="2.20683">
        <ele>212.59</ele>
        <time>2021-05-17T12:51:50Z</time>
      </trkpt>
      <trkpt lat="44.15455" lon="2.20662">
        <ele>214.03</ele>
        <time>2021-05-17T12:52:05Z</time>
      </trkpt>
      <trkpt lat="44.15449" lon="2.20642">
        <ele>214.51</ele>
        <time>2021-05-17T12:52:20Z</time>
      </trkpt>
      <trkpt lat="44.15445" lon="2.2062">
        <ele>215.47</ele>
        <time>2021-05-17T12:52:34Z</time>
      </trkpt>
      <trkpt lat="44.15444" lon="2.20597">
        <ele>216.91</ele>
        <time>2021-05-17T12:52:49Z</time>
      </trkpt>
      <trkpt lat="44.15442" lon="2.20581">
        <ele>218.36</ele>
        <time>2021-05-17T12:53:03Z</time>
      </trkpt>
      <trkpt lat="44.15441" lon="2.20567">
        <ele>216.91</ele>
        <time>2021-05-17T12:53:18Z</time>
      </trkpt>
      <trkpt lat="44.15443" lon="2.20565">
        <ele>216.91</ele>
        <time>2021-05-17T12:53:31Z</time>
      </trkpt>
      <trkpt lat="44.15444" lon="2.20562">
        <ele>216.91</ele>
        <time>2021-05-17T12:53:33Z</time>
      </trkpt>
      <trkpt lat="44.15443" lon="2.20555">
        <ele>216.43</ele>
        <time>2021-05-17T12:53:37Z</time>
      </trkpt>
      <trkpt lat="44.15449" lon="2.20535">
        <ele>216.43</ele>
        <time>2021-05-17T12:53:51Z</time>
      </trkpt>
      <trkpt lat="44.15447" lon="2.20521">
        <ele>216.43</ele>
        <time>2021-05-17T12:54:10Z</time>
      </trkpt>
      <trkpt lat="44.15442" lon="2.20516">
        <ele>216.43</ele>
        <time>2021-05-17T12:54:15Z</time>
      </trkpt>
      <trkpt lat="44.1543" lon="2.20513">
        <ele>216.91</ele>
        <time>2021-05-17T12:54:26Z</time>
      </trkpt>
      <trkpt lat="44.15418" lon="2.20491">
        <ele>215.47</ele>
        <time>2021-05-17T12:54:42Z</time>
      </trkpt>
      <trkpt lat="44.15412" lon="2.20484">
        <ele>214.99</ele>
        <time>2021-05-17T12:54:57Z</time>
      </trkpt>
      <trkpt lat="44.15412" lon="2.20482">
        <ele>214.99</ele>
        <time>2021-05-17T12:54:59Z</time>
      </trkpt>
      <trkpt lat="44.15408" lon="2.20464">
        <ele>214.51</ele>
        <time>2021-05-17T12:55:15Z</time>
      </trkpt>
      <trkpt lat="44.15409" lon="2.2046">
        <ele>214.51</ele>
        <time>2021-05-17T12:55:18Z</time>
      </trkpt>
      <trkpt lat="44.15408" lon="2.20454">
        <ele>214.03</ele>
        <time>2021-05-17T12:55:23Z</time>
      </trkpt>
      <trkpt lat="44.15403" lon="2.20429">
        <ele>213.07</ele>
        <time>2021-05-17T12:55:39Z</time>
      </trkpt>
      <trkpt lat="44.15401" lon="2.20407">
        <ele>211.63</ele>
        <time>2021-05-17T12:55:53Z</time>
      </trkpt>
      <trkpt lat="44.154" lon="2.20404">
        <ele>211.63</ele>
        <time>2021-05-17T12:55:55Z</time>
      </trkpt>
      <trkpt lat="44.15398" lon="2.20393">
        <ele>211.15</ele>
        <time>2021-05-17T12:56:01Z</time>
      </trkpt>
      <trkpt lat="44.15382" lon="2.20372">
        <ele>210.67</ele>
        <time>2021-05-17T12:56:18Z</time>
      </trkpt>
      <trkpt lat="44.15365" lon="2.20363">
        <ele>211.15</ele>
        <time>2021-05-17T12:56:32Z</time>
      </trkpt>
      <trkpt lat="44.15349" lon="2.20359">
        <ele>211.15</ele>
        <time>2021-05-17T12:56:49Z</time>
      </trkpt>
      <trkpt lat="44.15344" lon="2.20356">
        <ele>211.63</ele>
        <time>2021-05-17T12:57:03Z</time>
      </trkpt>
      <trkpt lat="44.15328" lon="2.20348">
        <ele>211.15</ele>
        <time>2021-05-17T12:57:20Z</time>
      </trkpt>
      <trkpt lat="44.15325" lon="2.20345">
        <ele>210.67</ele>
        <time>2021-05-17T12:57:32Z</time>
      </trkpt>
      <trkpt lat="44.15326" lon="2.20347">
        <ele>210.67</ele>
        <time>2021-05-17T12:57:46Z</time>
      </trkpt>
      <trkpt lat="44.15329" lon="2.20345">
        <ele>210.67</ele>
        <time>2021-05-17T12:57:59Z</time>
      </trkpt>
      <trkpt lat="44.15328" lon="2.20345">
        <ele>210.67</ele>
        <time>2021-05-17T12:58:14Z</time>
      </trkpt>
      <trkpt lat="44.15332" lon="2.20345">
        <ele>211.15</ele>
        <time>2021-05-17T12:58:25Z</time>
      </trkpt>
      <trkpt lat="44.15335" lon="2.20337">
        <ele>212.59</ele>
        <time>2021-05-17T12:58:33Z</time>
      </trkpt>
      <trkpt lat="44.15333" lon="2.20323">
        <ele>214.03</ele>
        <time>2021-05-17T12:58:45Z</time>
      </trkpt>
      <trkpt lat="44.15334" lon="2.20314">
        <ele>214.99</ele>
        <time>2021-05-17T12:58:52Z</time>
      </trkpt>
      <trkpt lat="44.15331" lon="2.20297">
        <ele>216.43</ele>
        <time>2021-05-17T12:59:06Z</time>
      </trkpt>
      <trkpt lat="44.15329" lon="2.20279">
        <ele>218.84</ele>
        <time>2021-05-17T12:59:19Z</time>
      </trkpt>
      <trkpt lat="44.15331" lon="2.20264">
        <ele>219.8</ele>
        <time>2021-05-17T12:59:31Z</time>
      </trkpt>
      <trkpt lat="44.15327" lon="2.2025">
        <ele>221.24</ele>
        <time>2021-05-17T12:59:40Z</time>
      </trkpt>
      <trkpt lat="44.15326" lon="2.20247">
        <ele>221.24</ele>
        <time>2021-05-17T12:59:42Z</time>
      </trkpt>
      <trkpt lat="44.15322" lon="2.20227">
        <ele>224.12</ele>
        <time>2021-05-17T12:59:57Z</time>
      </trkpt>
      <trkpt lat="44.15321" lon="2.20212">
        <ele>226.05</ele>
        <time>2021-05-17T13:00:09Z</time>
      </trkpt>
      <trkpt lat="44.15324" lon="2.20199">
        <ele>227.97</ele>
        <time>2021-05-17T13:00:20Z</time>
      </trkpt>
      <trkpt lat="44.15323" lon="2.20183">
        <ele>229.89</ele>
        <time>2021-05-17T13:00:34Z</time>
      </trkpt>
      <trkpt lat="44.15327" lon="2.20164">
        <ele>231.81</ele>
        <time>2021-05-17T13:00:47Z</time>
      </trkpt>
      <trkpt lat="44.15323" lon="2.20139">
        <ele>234.22</ele>
        <time>2021-05-17T13:01:02Z</time>
      </trkpt>
      <trkpt lat="44.1533" lon="2.20125">
        <ele>236.62</ele>
        <time>2021-05-17T13:01:16Z</time>
      </trkpt>
      <trkpt lat="44.15337" lon="2.20107">
        <ele>239.51</ele>
        <time>2021-05-17T13:01:30Z</time>
      </trkpt>
      <trkpt lat="44.15341" lon="2.2009">
        <ele>241.91</ele>
        <time>2021-05-17T13:01:44Z</time>
      </trkpt>
      <trkpt lat="44.1534" lon="2.20077">
        <ele>244.31</ele>
        <time>2021-05-17T13:01:58Z</time>
      </trkpt>
      <trkpt lat="44.15336" lon="2.20068">
        <ele>246.23</ele>
        <time>2021-05-17T13:02:09Z</time>
      </trkpt>
      <trkpt lat="44.15332" lon="2.20054">
        <ele>248.16</ele>
        <time>2021-05-17T13:02:23Z</time>
      </trkpt>
      <trkpt lat="44.15327" lon="2.20037">
        <ele>251.04</ele>
        <time>2021-05-17T13:02:39Z</time>
      </trkpt>
      <trkpt lat="44.15324" lon="2.2002">
        <ele>253.44</ele>
        <time>2021-05-17T13:02:54Z</time>
      </trkpt>
      <trkpt lat="44.1532" lon="2.20011">
        <ele>254.41</ele>
        <time>2021-05-17T13:03:12Z</time>
      </trkpt>
      <trkpt lat="44.15316" lon="2.2001">
        <ele>254.89</ele>
        <time>2021-05-17T13:03:32Z</time>
      </trkpt>
      <trkpt lat="44.1532" lon="2.20008">
        <ele>255.85</ele>
        <time>2021-05-17T13:03:54Z</time>
      </trkpt>
      <trkpt lat="44.15315" lon="2.20013">
        <ele>256.33</ele>
        <time>2021-05-17T13:04:21Z</time>
      </trkpt>
      <trkpt lat="44.15309" lon="2.20001">
        <ele>256.81</ele>
        <time>2021-05-17T13:04:45Z</time>
      </trkpt>
      <trkpt lat="44.15315" lon="2.19995">
        <ele>257.29</ele>
        <time>2021-05-17T13:05:09Z</time>
      </trkpt>
      <trkpt lat="44.15319" lon="2.19983">
        <ele>259.69</ele>
        <time>2021-05-17T13:05:25Z</time>
      </trkpt>
      <trkpt lat="44.15319" lon="2.1997">
        <ele>262.1</ele>
        <time>2021-05-17T13:05:39Z</time>
      </trkpt>
      <trkpt lat="44.15317" lon="2.19956">
        <ele>264.5</ele>
        <time>2021-05-17T13:05:51Z</time>
      </trkpt>
      <trkpt lat="44.15317" lon="2.19943">
        <ele>267.38</ele>
        <time>2021-05-17T13:06:06Z</time>
      </trkpt>
      <trkpt lat="44.15316" lon="2.19933">
        <ele>269.31</ele>
        <time>2021-05-17T13:06:18Z</time>
      </trkpt>
      <trkpt lat="44.15314" lon="2.19917">
        <ele>272.19</ele>
        <time>2021-05-17T13:06:33Z</time>
      </trkpt>
      <trkpt lat="44.15312" lon="2.199">
        <ele>274.59</ele>
        <time>2021-05-17T13:06:49Z</time>
      </trkpt>
      <trkpt lat="44.15309" lon="2.19888">
        <ele>277</ele>
        <time>2021-05-17T13:07:04Z</time>
      </trkpt>
      <trkpt lat="44.15305" lon="2.19878">
        <ele>280.36</ele>
        <time>2021-05-17T13:07:17Z</time>
      </trkpt>
      <trkpt lat="44.15301" lon="2.19863">
        <ele>283.25</ele>
        <time>2021-05-17T13:07:36Z</time>
      </trkpt>
      <trkpt lat="44.15298" lon="2.19849">
        <ele>285.65</ele>
        <time>2021-05-17T13:07:49Z</time>
      </trkpt>
      <trkpt lat="44.15296" lon="2.19835">
        <ele>288.05</ele>
        <time>2021-05-17T13:08:04Z</time>
      </trkpt>
      <trkpt lat="44.15294" lon="2.19825">
        <ele>289.97</ele>
        <time>2021-05-17T13:08:20Z</time>
      </trkpt>
      <trkpt lat="44.15287" lon="2.19814">
        <ele>289.97</ele>
        <time>2021-05-17T13:08:43Z</time>
      </trkpt>
      <trkpt lat="44.15285" lon="2.19813">
        <ele>290.46</ele>
        <time>2021-05-17T13:09:08Z</time>
      </trkpt>
      <trkpt lat="44.15284" lon="2.19809">
        <ele>290.94</ele>
        <time>2021-05-17T13:09:36Z</time>
      </trkpt>
      <trkpt lat="44.15283" lon="2.19811">
        <ele>291.42</ele>
        <time>2021-05-17T13:10:06Z</time>
      </trkpt>
      <trkpt lat="44.15284" lon="2.19806">
        <ele>291.9</ele>
        <time>2021-05-17T13:10:34Z</time>
      </trkpt>
      <trkpt lat="44.15285" lon="2.1981">
        <ele>291.9</ele>
        <time>2021-05-17T13:11:01Z</time>
      </trkpt>
      <trkpt lat="44.15286" lon="2.19809">
        <ele>292.38</ele>
        <time>2021-05-17T13:11:29Z</time>
      </trkpt>
      <trkpt lat="44.15286" lon="2.19802">
        <ele>294.3</ele>
        <time>2021-05-17T13:11:46Z</time>
      </trkpt>
      <trkpt lat="44.15284" lon="2.19788">
        <ele>297.18</ele>
        <time>2021-05-17T13:12:01Z</time>
      </trkpt>
      <trkpt lat="44.15281" lon="2.19772">
        <ele>300.07</ele>
        <time>2021-05-17T13:12:16Z</time>
      </trkpt>
      <trkpt lat="44.15278" lon="2.19757">
        <ele>301.99</ele>
        <time>2021-05-17T13:12:30Z</time>
      </trkpt>
      <trkpt lat="44.15275" lon="2.19742">
        <ele>304.39</ele>
        <time>2021-05-17T13:12:45Z</time>
      </trkpt>
      <trkpt lat="44.15272" lon="2.19721">
        <ele>305.36</ele>
        <time>2021-05-17T13:13:01Z</time>
      </trkpt>
      <trkpt lat="44.15271" lon="2.197">
        <ele>307.28</ele>
        <time>2021-05-17T13:13:19Z</time>
      </trkpt>
      <trkpt lat="44.15271" lon="2.19676">
        <ele>309.2</ele>
        <time>2021-05-17T13:13:36Z</time>
      </trkpt>
      <trkpt lat="44.1527" lon="2.19651">
        <ele>311.6</ele>
        <time>2021-05-17T13:13:55Z</time>
      </trkpt>
      <trkpt lat="44.15271" lon="2.19634">
        <ele>314.49</ele>
        <time>2021-05-17T13:14:10Z</time>
      </trkpt>
      <trkpt lat="44.1527" lon="2.19612">
        <ele>315.93</ele>
        <time>2021-05-17T13:14:25Z</time>
      </trkpt>
      <trkpt lat="44.15271" lon="2.1959">
        <ele>316.89</ele>
        <time>2021-05-17T13:14:41Z</time>
      </trkpt>
      <trkpt lat="44.15272" lon="2.19569">
        <ele>317.85</ele>
        <time>2021-05-17T13:14:56Z</time>
      </trkpt>
      <trkpt lat="44.15273" lon="2.19551">
        <ele>319.3</ele>
        <time>2021-05-17T13:15:10Z</time>
      </trkpt>
      <trkpt lat="44.15273" lon="2.19531">
        <ele>320.74</ele>
        <time>2021-05-17T13:15:24Z</time>
      </trkpt>
      <trkpt lat="44.15274" lon="2.19511">
        <ele>320.74</ele>
        <time>2021-05-17T13:15:39Z</time>
      </trkpt>
      <trkpt lat="44.15275" lon="2.19491">
        <ele>322.18</ele>
        <time>2021-05-17T13:15:52Z</time>
      </trkpt>
      <trkpt lat="44.15274" lon="2.19469">
        <ele>324.1</ele>
        <time>2021-05-17T13:16:09Z</time>
      </trkpt>
      <trkpt lat="44.15274" lon="2.19451">
        <ele>325.54</ele>
        <time>2021-05-17T13:16:23Z</time>
      </trkpt>
      <trkpt lat="44.15271" lon="2.19432">
        <ele>326.99</ele>
        <time>2021-05-17T13:16:39Z</time>
      </trkpt>
      <trkpt lat="44.15264" lon="2.19412">
        <ele>328.43</ele>
        <time>2021-05-17T13:16:55Z</time>
      </trkpt>
      <trkpt lat="44.15259" lon="2.19396">
        <ele>328.91</ele>
        <time>2021-05-17T13:17:09Z</time>
      </trkpt>
      <trkpt lat="44.15253" lon="2.19374">
        <ele>329.87</ele>
        <time>2021-05-17T13:17:23Z</time>
      </trkpt>
      <trkpt lat="44.1525" lon="2.19353">
        <ele>330.35</ele>
        <time>2021-05-17T13:17:39Z</time>
      </trkpt>
      <trkpt lat="44.15247" lon="2.19331">
        <ele>333.23</ele>
        <time>2021-05-17T13:17:55Z</time>
      </trkpt>
      <trkpt lat="44.15246" lon="2.19327">
        <ele>333.23</ele>
        <time>2021-05-17T13:17:58Z</time>
      </trkpt>
      <trkpt lat="44.15248" lon="2.19305">
        <ele>334.68</ele>
        <time>2021-05-17T13:18:14Z</time>
      </trkpt>
      <trkpt lat="44.1524" lon="2.19294">
        <ele>336.6</ele>
        <time>2021-05-17T13:18:31Z</time>
      </trkpt>
      <trkpt lat="44.15228" lon="2.19298">
        <ele>338.52</ele>
        <time>2021-05-17T13:18:45Z</time>
      </trkpt>
      <trkpt lat="44.15216" lon="2.19303">
        <ele>340.92</ele>
        <time>2021-05-17T13:19:00Z</time>
      </trkpt>
      <trkpt lat="44.15203" lon="2.19307">
        <ele>342.85</ele>
        <time>2021-05-17T13:19:15Z</time>
      </trkpt>
      <trkpt lat="44.15191" lon="2.1931">
        <ele>342.85</ele>
        <time>2021-05-17T13:19:30Z</time>
      </trkpt>
      <trkpt lat="44.15184" lon="2.1931">
        <ele>343.33</ele>
        <time>2021-05-17T13:19:37Z</time>
      </trkpt>
      <trkpt lat="44.15169" lon="2.19315">
        <ele>343.33</ele>
        <time>2021-05-17T13:19:55Z</time>
      </trkpt>
      <trkpt lat="44.15164" lon="2.19282">
        <ele>344.77</ele>
        <time>2021-05-17T13:20:17Z</time>
      </trkpt>
      <trkpt lat="44.1516" lon="2.19256">
        <ele>344.77</ele>
        <time>2021-05-17T13:20:35Z</time>
      </trkpt>
      <trkpt lat="44.15158" lon="2.19229">
        <ele>345.25</ele>
        <time>2021-05-17T13:20:51Z</time>
      </trkpt>
      <trkpt lat="44.15158" lon="2.19201">
        <ele>346.21</ele>
        <time>2021-05-17T13:21:09Z</time>
      </trkpt>
      <trkpt lat="44.15158" lon="2.19177">
        <ele>346.21</ele>
        <time>2021-05-17T13:21:26Z</time>
      </trkpt>
      <trkpt lat="44.15156" lon="2.1915">
        <ele>346.21</ele>
        <time>2021-05-17T13:21:42Z</time>
      </trkpt>
      <trkpt lat="44.15155" lon="2.1913">
        <ele>346.69</ele>
        <time>2021-05-17T13:21:57Z</time>
      </trkpt>
      <trkpt lat="44.15152" lon="2.19098">
        <ele>347.65</ele>
        <time>2021-05-17T13:22:16Z</time>
      </trkpt>
      <trkpt lat="44.15146" lon="2.19069">
        <ele>348.13</ele>
        <time>2021-05-17T13:22:34Z</time>
      </trkpt>
      <trkpt lat="44.15139" lon="2.1904">
        <ele>348.62</ele>
        <time>2021-05-17T13:22:52Z</time>
      </trkpt>
      <trkpt lat="44.15134" lon="2.19014">
        <ele>349.58</ele>
        <time>2021-05-17T13:23:09Z</time>
      </trkpt>
      <trkpt lat="44.1513" lon="2.18988">
        <ele>350.06</ele>
        <time>2021-05-17T13:23:26Z</time>
      </trkpt>
      <trkpt lat="44.15126" lon="2.18967">
        <ele>351.5</ele>
        <time>2021-05-17T13:23:39Z</time>
      </trkpt>
      <trkpt lat="44.15123" lon="2.18944">
        <ele>351.5</ele>
        <time>2021-05-17T13:23:55Z</time>
      </trkpt>
      <trkpt lat="44.15122" lon="2.18939">
        <ele>351.5</ele>
        <time>2021-05-17T13:23:58Z</time>
      </trkpt>
      <trkpt lat="44.15119" lon="2.18925">
        <ele>351.98</ele>
        <time>2021-05-17T13:24:06Z</time>
      </trkpt>
      <trkpt lat="44.15116" lon="2.18902">
        <ele>353.42</ele>
        <time>2021-05-17T13:24:23Z</time>
      </trkpt>
      <trkpt lat="44.15114" lon="2.18884">
        <ele>354.38</ele>
        <time>2021-05-17T13:24:39Z</time>
      </trkpt>
      <trkpt lat="44.15107" lon="2.18853">
        <ele>355.83</ele>
        <time>2021-05-17T13:24:56Z</time>
      </trkpt>
      <trkpt lat="44.15105" lon="2.18833">
        <ele>357.75</ele>
        <time>2021-05-17T13:25:12Z</time>
      </trkpt>
      <trkpt lat="44.15103" lon="2.18823">
        <ele>358.23</ele>
        <time>2021-05-17T13:25:18Z</time>
      </trkpt>
      <trkpt lat="44.15103" lon="2.18815">
        <ele>358.71</ele>
        <time>2021-05-17T13:25:21Z</time>
      </trkpt>
      <trkpt lat="44.15101" lon="2.18787">
        <ele>359.67</ele>
        <time>2021-05-17T13:25:40Z</time>
      </trkpt>
      <trkpt lat="44.151" lon="2.18765">
        <ele>360.15</ele>
        <time>2021-05-17T13:25:55Z</time>
      </trkpt>
      <trkpt lat="44.151" lon="2.18761">
        <ele>360.15</ele>
        <time>2021-05-17T13:25:57Z</time>
      </trkpt>
      <trkpt lat="44.15102" lon="2.18736">
        <ele>360.15</ele>
        <time>2021-05-17T13:26:13Z</time>
      </trkpt>
      <trkpt lat="44.15103" lon="2.18727">
        <ele>358.71</ele>
        <time>2021-05-17T13:26:19Z</time>
      </trkpt>
      <trkpt lat="44.15103" lon="2.18725">
        <ele>360.15</ele>
        <time>2021-05-17T13:26:21Z</time>
      </trkpt>
      <trkpt lat="44.15103" lon="2.18703">
        <ele>360.15</ele>
        <time>2021-05-17T13:26:36Z</time>
      </trkpt>
      <trkpt lat="44.15105" lon="2.18674">
        <ele>360.15</ele>
        <time>2021-05-17T13:26:54Z</time>
      </trkpt>
      <trkpt lat="44.15106" lon="2.18651">
        <ele>361.59</ele>
        <time>2021-05-17T13:27:08Z</time>
      </trkpt>
      <trkpt lat="44.15109" lon="2.18626">
        <ele>362.55</ele>
        <time>2021-05-17T13:27:27Z</time>
      </trkpt>
      <trkpt lat="44.15109" lon="2.18598">
        <ele>363.04</ele>
        <time>2021-05-17T13:27:44Z</time>
      </trkpt>
      <trkpt lat="44.15109" lon="2.18576">
        <ele>364</ele>
        <time>2021-05-17T13:28:00Z</time>
      </trkpt>
      <trkpt lat="44.15104" lon="2.18549">
        <ele>364.48</ele>
        <time>2021-05-17T13:28:18Z</time>
      </trkpt>
      <trkpt lat="44.15097" lon="2.18526">
        <ele>365.44</ele>
        <time>2021-05-17T13:28:34Z</time>
      </trkpt>
      <trkpt lat="44.15087" lon="2.18502">
        <ele>366.88</ele>
        <time>2021-05-17T13:28:52Z</time>
      </trkpt>
      <trkpt lat="44.15082" lon="2.18484">
        <ele>367.84</ele>
        <time>2021-05-17T13:29:08Z</time>
      </trkpt>
      <trkpt lat="44.15073" lon="2.18463">
        <ele>369.76</ele>
        <time>2021-05-17T13:29:28Z</time>
      </trkpt>
      <trkpt lat="44.15063" lon="2.18441">
        <ele>371.21</ele>
        <time>2021-05-17T13:29:47Z</time>
      </trkpt>
      <trkpt lat="44.15055" lon="2.18424">
        <ele>372.65</ele>
        <time>2021-05-17T13:30:02Z</time>
      </trkpt>
      <trkpt lat="44.15042" lon="2.18398">
        <ele>374.09</ele>
        <time>2021-05-17T13:30:21Z</time>
      </trkpt>
      <trkpt lat="44.15034" lon="2.18383">
        <ele>375.53</ele>
        <time>2021-05-17T13:30:37Z</time>
      </trkpt>
      <trkpt lat="44.15023" lon="2.18367">
        <ele>376.49</ele>
        <time>2021-05-17T13:30:53Z</time>
      </trkpt>
      <trkpt lat="44.1501" lon="2.18347">
        <ele>377.45</ele>
        <time>2021-05-17T13:31:09Z</time>
      </trkpt>
      <trkpt lat="44.14999" lon="2.18326">
        <ele>378.9</ele>
        <time>2021-05-17T13:31:27Z</time>
      </trkpt>
      <trkpt lat="44.14986" lon="2.18305">
        <ele>379.38</ele>
        <time>2021-05-17T13:31:45Z</time>
      </trkpt>
      <trkpt lat="44.1498" lon="2.18295">
        <ele>379.86</ele>
        <time>2021-05-17T13:31:52Z</time>
      </trkpt>
      <trkpt lat="44.1497" lon="2.18277">
        <ele>379.86</ele>
        <time>2021-05-17T13:32:05Z</time>
      </trkpt>
      <trkpt lat="44.14968" lon="2.18271">
        <ele>379.86</ele>
        <time>2021-05-17T13:32:09Z</time>
      </trkpt>
      <trkpt lat="44.14966" lon="2.18267">
        <ele>378.42</ele>
        <time>2021-05-17T13:32:11Z</time>
      </trkpt>
      <trkpt lat="44.14953" lon="2.18241">
        <ele>376.97</ele>
        <time>2021-05-17T13:32:30Z</time>
      </trkpt>
      <trkpt lat="44.14949" lon="2.18229">
        <ele>376.01</ele>
        <time>2021-05-17T13:32:39Z</time>
      </trkpt>
      <trkpt lat="44.14945" lon="2.18217">
        <ele>375.05</ele>
        <time>2021-05-17T13:32:47Z</time>
      </trkpt>
      <trkpt lat="44.14937" lon="2.18197">
        <ele>373.13</ele>
        <time>2021-05-17T13:33:04Z</time>
      </trkpt>
      <trkpt lat="44.14926" lon="2.18182">
        <ele>371.21</ele>
        <time>2021-05-17T13:33:23Z</time>
      </trkpt>
      <trkpt lat="44.14917" lon="2.18169">
        <ele>367.84</ele>
        <time>2021-05-17T13:33:40Z</time>
      </trkpt>
      <trkpt lat="44.14911" lon="2.18153">
        <ele>365.44</ele>
        <time>2021-05-17T13:33:56Z</time>
      </trkpt>
      <trkpt lat="44.14909" lon="2.1813">
        <ele>363.52</ele>
        <time>2021-05-17T13:34:14Z</time>
      </trkpt>
      <trkpt lat="44.14907" lon="2.18111">
        <ele>360.15</ele>
        <time>2021-05-17T13:34:32Z</time>
      </trkpt>
      <trkpt lat="44.14903" lon="2.18083">
        <ele>359.67</ele>
        <time>2021-05-17T13:34:47Z</time>
      </trkpt>
      <trkpt lat="44.14903" lon="2.18063">
        <ele>356.79</ele>
        <time>2021-05-17T13:35:04Z</time>
      </trkpt>
      <trkpt lat="44.14901" lon="2.18044">
        <ele>356.31</ele>
        <time>2021-05-17T13:35:18Z</time>
      </trkpt>
      <trkpt lat="44.14894" lon="2.18013">
        <ele>355.83</ele>
        <time>2021-05-17T13:35:35Z</time>
      </trkpt>
      <trkpt lat="44.14891" lon="2.1799">
        <ele>355.34</ele>
        <time>2021-05-17T13:35:52Z</time>
      </trkpt>
      <trkpt lat="44.14886" lon="2.17953">
        <ele>354.38</ele>
        <time>2021-05-17T13:36:08Z</time>
      </trkpt>
      <trkpt lat="44.14882" lon="2.17931">
        <ele>354.38</ele>
        <time>2021-05-17T13:36:23Z</time>
      </trkpt>
      <trkpt lat="44.14877" lon="2.17916">
        <ele>353.9</ele>
        <time>2021-05-17T13:36:42Z</time>
      </trkpt>
      <trkpt lat="44.1487" lon="2.17886">
        <ele>353.9</ele>
        <time>2021-05-17T13:37:03Z</time>
      </trkpt>
      <trkpt lat="44.14857" lon="2.17878">
        <ele>353.9</ele>
        <time>2021-05-17T13:37:18Z</time>
      </trkpt>
      <trkpt lat="44.14838" lon="2.17865">
        <ele>355.34</ele>
        <time>2021-05-17T13:37:34Z</time>
      </trkpt>
      <trkpt lat="44.14823" lon="2.17851">
        <ele>357.27</ele>
        <time>2021-05-17T13:37:52Z</time>
      </trkpt>
      <trkpt lat="44.14808" lon="2.17831">
        <ele>359.19</ele>
        <time>2021-05-17T13:38:10Z</time>
      </trkpt>
      <trkpt lat="44.148" lon="2.17821">
        <ele>359.67</ele>
        <time>2021-05-17T13:38:19Z</time>
      </trkpt>
      <trkpt lat="44.14789" lon="2.17805">
        <ele>361.59</ele>
        <time>2021-05-17T13:38:35Z</time>
      </trkpt>
      <trkpt lat="44.14778" lon="2.17787">
        <ele>363.04</ele>
        <time>2021-05-17T13:38:50Z</time>
      </trkpt>
      <trkpt lat="44.14766" lon="2.1777">
        <ele>363.52</ele>
        <time>2021-05-17T13:39:07Z</time>
      </trkpt>
      <trkpt lat="44.14759" lon="2.1776">
        <ele>364</ele>
        <time>2021-05-17T13:39:20Z</time>
      </trkpt>
      <trkpt lat="44.14755" lon="2.17738">
        <ele>364</ele>
        <time>2021-05-17T13:39:38Z</time>
      </trkpt>
      <trkpt lat="44.14754" lon="2.17735">
        <ele>362.55</ele>
        <time>2021-05-17T13:39:40Z</time>
      </trkpt>
      <trkpt lat="44.14748" lon="2.1771">
        <ele>361.11</ele>
        <time>2021-05-17T13:39:58Z</time>
      </trkpt>
      <trkpt lat="44.14744" lon="2.17686">
        <ele>359.67</ele>
        <time>2021-05-17T13:40:15Z</time>
      </trkpt>
      <trkpt lat="44.1474" lon="2.17664">
        <ele>357.75</ele>
        <time>2021-05-17T13:40:31Z</time>
      </trkpt>
      <trkpt lat="44.1474" lon="2.17638">
        <ele>355.83</ele>
        <time>2021-05-17T13:40:47Z</time>
      </trkpt>
      <trkpt lat="44.14742" lon="2.1762">
        <ele>354.38</ele>
        <time>2021-05-17T13:40:59Z</time>
      </trkpt>
      <trkpt lat="44.14743" lon="2.17596">
        <ele>352.46</ele>
        <time>2021-05-17T13:41:15Z</time>
      </trkpt>
      <trkpt lat="44.1475" lon="2.17566">
        <ele>350.54</ele>
        <time>2021-05-17T13:41:33Z</time>
      </trkpt>
      <trkpt lat="44.14757" lon="2.17539">
        <ele>348.13</ele>
        <time>2021-05-17T13:41:50Z</time>
      </trkpt>
      <trkpt lat="44.1476" lon="2.17511">
        <ele>345.25</ele>
        <time>2021-05-17T13:42:09Z</time>
      </trkpt>
      <trkpt lat="44.14761" lon="2.17486">
        <ele>343.33</ele>
        <time>2021-05-17T13:42:25Z</time>
      </trkpt>
      <trkpt lat="44.14761" lon="2.17466">
        <ele>341.41</ele>
        <time>2021-05-17T13:42:42Z</time>
      </trkpt>
      <trkpt lat="44.14759" lon="2.17438">
        <ele>339</ele>
        <time>2021-05-17T13:42:56Z</time>
      </trkpt>
      <trkpt lat="44.14759" lon="2.17406">
        <ele>337.08</ele>
        <time>2021-05-17T13:43:15Z</time>
      </trkpt>
      <trkpt lat="44.14758" lon="2.1739">
        <ele>335.16</ele>
        <time>2021-05-17T13:43:30Z</time>
      </trkpt>
      <trkpt lat="44.14757" lon="2.17388">
        <ele>334.68</ele>
        <time>2021-05-17T13:43:32Z</time>
      </trkpt>
      <trkpt lat="44.14744" lon="2.17375">
        <ele>335.16</ele>
        <time>2021-05-17T13:43:43Z</time>
      </trkpt>
      <trkpt lat="44.14733" lon="2.17375">
        <ele>335.64</ele>
        <time>2021-05-17T13:43:53Z</time>
      </trkpt>
      <trkpt lat="44.14715" lon="2.17382">
        <ele>335.64</ele>
        <time>2021-05-17T13:44:08Z</time>
      </trkpt>
      <trkpt lat="44.14706" lon="2.17392">
        <ele>337.08</ele>
        <time>2021-05-17T13:44:21Z</time>
      </trkpt>
      <trkpt lat="44.14702" lon="2.17409">
        <ele>339</ele>
        <time>2021-05-17T13:44:35Z</time>
      </trkpt>
      <trkpt lat="44.14691" lon="2.17431">
        <ele>340.92</ele>
        <time>2021-05-17T13:44:52Z</time>
      </trkpt>
      <trkpt lat="44.14685" lon="2.1744">
        <ele>341.41</ele>
        <time>2021-05-17T13:45:00Z</time>
      </trkpt>
      <trkpt lat="44.1467" lon="2.17456">
        <ele>343.33</ele>
        <time>2021-05-17T13:45:15Z</time>
      </trkpt>
      <trkpt lat="44.14662" lon="2.17461">
        <ele>344.77</ele>
        <time>2021-05-17T13:45:22Z</time>
      </trkpt>
      <trkpt lat="44.14647" lon="2.1748">
        <ele>345.73</ele>
        <time>2021-05-17T13:45:39Z</time>
      </trkpt>
      <trkpt lat="44.1463" lon="2.17492">
        <ele>347.17</ele>
        <time>2021-05-17T13:45:55Z</time>
      </trkpt>
      <trkpt lat="44.14612" lon="2.17506">
        <ele>347.65</ele>
        <time>2021-05-17T13:46:13Z</time>
      </trkpt>
      <trkpt lat="44.14594" lon="2.1752">
        <ele>348.62</ele>
        <time>2021-05-17T13:46:31Z</time>
      </trkpt>
      <trkpt lat="44.14575" lon="2.17536">
        <ele>349.1</ele>
        <time>2021-05-17T13:46:50Z</time>
      </trkpt>
      <trkpt lat="44.1456" lon="2.17549">
        <ele>349.58</ele>
        <time>2021-05-17T13:47:05Z</time>
      </trkpt>
      <trkpt lat="44.14548" lon="2.17569">
        <ele>349.58</ele>
        <time>2021-05-17T13:47:22Z</time>
      </trkpt>
      <trkpt lat="44.14534" lon="2.17596">
        <ele>348.62</ele>
        <time>2021-05-17T13:47:43Z</time>
      </trkpt>
      <trkpt lat="44.14533" lon="2.17597">
        <ele>348.62</ele>
        <time>2021-05-17T13:47:44Z</time>
      </trkpt>
      <trkpt lat="44.14522" lon="2.17619">
        <ele>346.21</ele>
        <time>2021-05-17T13:48:00Z</time>
      </trkpt>
      <trkpt lat="44.14516" lon="2.17628">
        <ele>348.62</ele>
        <time>2021-05-17T13:48:06Z</time>
      </trkpt>
      <trkpt lat="44.14502" lon="2.17657">
        <ele>348.13</ele>
        <time>2021-05-17T13:48:25Z</time>
      </trkpt>
      <trkpt lat="44.14483" lon="2.17682">
        <ele>350.54</ele>
        <time>2021-05-17T13:48:46Z</time>
      </trkpt>
      <trkpt lat="44.14482" lon="2.17683">
        <ele>350.54</ele>
        <time>2021-05-17T13:48:47Z</time>
      </trkpt>
      <trkpt lat="44.1446" lon="2.17703">
        <ele>348.13</ele>
        <time>2021-05-17T13:49:07Z</time>
      </trkpt>
      <trkpt lat="44.14456" lon="2.17706">
        <ele>348.13</ele>
        <time>2021-05-17T13:49:11Z</time>
      </trkpt>
      <trkpt lat="44.14448" lon="2.17714">
        <ele>347.65</ele>
        <time>2021-05-17T13:49:27Z</time>
      </trkpt>
      <trkpt lat="44.14437" lon="2.17716">
        <ele>346.21</ele>
        <time>2021-05-17T13:49:42Z</time>
      </trkpt>
      <trkpt lat="44.14431" lon="2.17718">
        <ele>346.69</ele>
        <time>2021-05-17T13:49:47Z</time>
      </trkpt>
      <trkpt lat="44.14407" lon="2.17728">
        <ele>345.73</ele>
        <time>2021-05-17T13:50:09Z</time>
      </trkpt>
      <trkpt lat="44.14395" lon="2.17751">
        <ele>345.25</ele>
        <time>2021-05-17T13:50:27Z</time>
      </trkpt>
      <trkpt lat="44.14386" lon="2.17779">
        <ele>347.65</ele>
        <time>2021-05-17T13:50:46Z</time>
      </trkpt>
      <trkpt lat="44.14375" lon="2.1781">
        <ele>349.58</ele>
        <time>2021-05-17T13:51:06Z</time>
      </trkpt>
      <trkpt lat="44.14364" lon="2.17839">
        <ele>351.5</ele>
        <time>2021-05-17T13:51:24Z</time>
      </trkpt>
      <trkpt lat="44.14353" lon="2.17862">
        <ele>352.46</ele>
        <time>2021-05-17T13:51:41Z</time>
      </trkpt>
      <trkpt lat="44.14337" lon="2.17883">
        <ele>353.9</ele>
        <time>2021-05-17T13:52:00Z</time>
      </trkpt>
      <trkpt lat="44.14334" lon="2.17884">
        <ele>353.9</ele>
        <time>2021-05-17T13:52:03Z</time>
      </trkpt>
      <trkpt lat="44.14332" lon="2.17892">
        <ele>352.94</ele>
        <time>2021-05-17T13:52:09Z</time>
      </trkpt>
      <trkpt lat="44.14332" lon="2.17895">
        <ele>352.94</ele>
        <time>2021-05-17T13:52:11Z</time>
      </trkpt>
      <trkpt lat="44.14334" lon="2.17915">
        <ele>351.02</ele>
        <time>2021-05-17T13:52:24Z</time>
      </trkpt>
      <trkpt lat="44.14335" lon="2.17942">
        <ele>348.13</ele>
        <time>2021-05-17T13:52:44Z</time>
      </trkpt>
      <trkpt lat="44.14331" lon="2.17964">
        <ele>345.73</ele>
        <time>2021-05-17T13:53:01Z</time>
      </trkpt>
      <trkpt lat="44.14336" lon="2.17982">
        <ele>342.85</ele>
        <time>2021-05-17T13:53:16Z</time>
      </trkpt>
      <trkpt lat="44.14338" lon="2.18002">
        <ele>341.89</ele>
        <time>2021-05-17T13:53:30Z</time>
      </trkpt>
      <trkpt lat="44.14336" lon="2.18021">
        <ele>340.44</ele>
        <time>2021-05-17T13:53:48Z</time>
      </trkpt>
      <trkpt lat="44.14336" lon="2.18021">
        <ele>339.96</ele>
        <time>2021-05-17T13:54:05Z</time>
      </trkpt>
      <trkpt lat="44.14336" lon="2.1802">
        <ele>339.96</ele>
        <time>2021-05-17T13:54:19Z</time>
      </trkpt>
      <trkpt lat="44.1434" lon="2.1803">
        <ele>339.96</ele>
        <time>2021-05-17T13:54:33Z</time>
      </trkpt>
      <trkpt lat="44.14349" lon="2.18048">
        <ele>338.52</ele>
        <time>2021-05-17T13:54:51Z</time>
      </trkpt>
      <trkpt lat="44.14355" lon="2.18064">
        <ele>335.64</ele>
        <time>2021-05-17T13:55:06Z</time>
      </trkpt>
      <trkpt lat="44.14357" lon="2.18079">
        <ele>332.75</ele>
        <time>2021-05-17T13:55:21Z</time>
      </trkpt>
      <trkpt lat="44.14357" lon="2.1809">
        <ele>330.83</ele>
        <time>2021-05-17T13:55:32Z</time>
      </trkpt>
      <trkpt lat="44.14358" lon="2.18095">
        <ele>329.39</ele>
        <time>2021-05-17T13:55:35Z</time>
      </trkpt>
      <trkpt lat="44.14363" lon="2.18116">
        <ele>326.5</ele>
        <time>2021-05-17T13:55:53Z</time>
      </trkpt>
      <trkpt lat="44.14367" lon="2.1814">
        <ele>326.02</ele>
        <time>2021-05-17T13:56:08Z</time>
      </trkpt>
      <trkpt lat="44.14373" lon="2.18165">
        <ele>324.58</ele>
        <time>2021-05-17T13:56:25Z</time>
      </trkpt>
      <trkpt lat="44.14374" lon="2.18194">
        <ele>322.18</ele>
        <time>2021-05-17T13:56:43Z</time>
      </trkpt>
      <trkpt lat="44.14375" lon="2.18216">
        <ele>319.78</ele>
        <time>2021-05-17T13:56:59Z</time>
      </trkpt>
      <trkpt lat="44.1438" lon="2.18243">
        <ele>318.33</ele>
        <time>2021-05-17T13:57:17Z</time>
      </trkpt>
      <trkpt lat="44.14383" lon="2.18264">
        <ele>317.37</ele>
        <time>2021-05-17T13:57:33Z</time>
      </trkpt>
      <trkpt lat="44.14381" lon="2.18289">
        <ele>314.01</ele>
        <time>2021-05-17T13:57:54Z</time>
      </trkpt>
      <trkpt lat="44.14384" lon="2.1831">
        <ele>311.12</ele>
        <time>2021-05-17T13:58:12Z</time>
      </trkpt>
      <trkpt lat="44.14383" lon="2.18327">
        <ele>309.2</ele>
        <time>2021-05-17T13:58:28Z</time>
      </trkpt>
      <trkpt lat="44.1438" lon="2.18339">
        <ele>306.32</ele>
        <time>2021-05-17T13:58:43Z</time>
      </trkpt>
      <trkpt lat="44.14379" lon="2.18352">
        <ele>304.39</ele>
        <time>2021-05-17T13:58:57Z</time>
      </trkpt>
      <trkpt lat="44.14377" lon="2.18365">
        <ele>302.95</ele>
        <time>2021-05-17T13:59:13Z</time>
      </trkpt>
      <trkpt lat="44.14375" lon="2.18381">
        <ele>300.07</ele>
        <time>2021-05-17T13:59:28Z</time>
      </trkpt>
      <trkpt lat="44.14368" lon="2.18394">
        <ele>298.15</ele>
        <time>2021-05-17T13:59:43Z</time>
      </trkpt>
      <trkpt lat="44.1437" lon="2.18405">
        <ele>295.26</ele>
        <time>2021-05-17T13:59:59Z</time>
      </trkpt>
      <trkpt lat="44.1438" lon="2.18416">
        <ele>291.9</ele>
        <time>2021-05-17T14:00:16Z</time>
      </trkpt>
      <trkpt lat="44.1439" lon="2.18422">
        <ele>289.97</ele>
        <time>2021-05-17T14:00:32Z</time>
      </trkpt>
      <trkpt lat="44.14397" lon="2.18438">
        <ele>288.05</ele>
        <time>2021-05-17T14:00:49Z</time>
      </trkpt>
      <trkpt lat="44.14401" lon="2.18459">
        <ele>285.65</ele>
        <time>2021-05-17T14:01:07Z</time>
      </trkpt>
      <trkpt lat="44.14404" lon="2.18478">
        <ele>283.73</ele>
        <time>2021-05-17T14:01:20Z</time>
      </trkpt>
      <trkpt lat="44.14411" lon="2.18503">
        <ele>281.32</ele>
        <time>2021-05-17T14:01:38Z</time>
      </trkpt>
      <trkpt lat="44.14415" lon="2.18526">
        <ele>279.88</ele>
        <time>2021-05-17T14:01:53Z</time>
      </trkpt>
      <trkpt lat="44.1442" lon="2.1855">
        <ele>278.44</ele>
        <time>2021-05-17T14:02:09Z</time>
      </trkpt>
      <trkpt lat="44.14425" lon="2.18577">
        <ele>277</ele>
        <time>2021-05-17T14:02:27Z</time>
      </trkpt>
      <trkpt lat="44.1443" lon="2.18595">
        <ele>275.56</ele>
        <time>2021-05-17T14:02:42Z</time>
      </trkpt>
      <trkpt lat="44.14439" lon="2.18621">
        <ele>273.63</ele>
        <time>2021-05-17T14:02:59Z</time>
      </trkpt>
      <trkpt lat="44.14444" lon="2.18636">
        <ele>272.67</ele>
        <time>2021-05-17T14:03:12Z</time>
      </trkpt>
      <trkpt lat="44.1445" lon="2.18643">
        <ele>269.31</ele>
        <time>2021-05-17T14:03:21Z</time>
      </trkpt>
      <trkpt lat="44.14453" lon="2.18649">
        <ele>270.75</ele>
        <time>2021-05-17T14:03:27Z</time>
      </trkpt>
      <trkpt lat="44.14461" lon="2.18665">
        <ele>267.86</ele>
        <time>2021-05-17T14:03:43Z</time>
      </trkpt>
      <trkpt lat="44.14471" lon="2.18679">
        <ele>265.46</ele>
        <time>2021-05-17T14:04:00Z</time>
      </trkpt>
      <trkpt lat="44.14482" lon="2.1869">
        <ele>263.54</ele>
        <time>2021-05-17T14:04:16Z</time>
      </trkpt>
      <trkpt lat="44.14485" lon="2.18708">
        <ele>262.1</ele>
        <time>2021-05-17T14:04:35Z</time>
      </trkpt>
      <trkpt lat="44.14472" lon="2.18708">
        <ele>259.69</ele>
        <time>2021-05-17T14:04:51Z</time>
      </trkpt>
      <trkpt lat="44.14463" lon="2.18703">
        <ele>258.25</ele>
        <time>2021-05-17T14:05:07Z</time>
      </trkpt>
      <trkpt lat="44.14463" lon="2.18717">
        <ele>255.85</ele>
        <time>2021-05-17T14:05:23Z</time>
      </trkpt>
      <trkpt lat="44.14473" lon="2.1873">
        <ele>253.44</ele>
        <time>2021-05-17T14:05:40Z</time>
      </trkpt>
      <trkpt lat="44.14484" lon="2.18739">
        <ele>252</ele>
        <time>2021-05-17T14:05:54Z</time>
      </trkpt>
      <trkpt lat="44.14494" lon="2.1875">
        <ele>250.08</ele>
        <time>2021-05-17T14:06:09Z</time>
      </trkpt>
      <trkpt lat="44.14507" lon="2.18767">
        <ele>247.68</ele>
        <time>2021-05-17T14:06:28Z</time>
      </trkpt>
      <trkpt lat="44.145" lon="2.1878">
        <ele>244.79</ele>
        <time>2021-05-17T14:06:45Z</time>
      </trkpt>
      <trkpt lat="44.14491" lon="2.18794">
        <ele>242.87</ele>
        <time>2021-05-17T14:07:01Z</time>
      </trkpt>
      <trkpt lat="44.14483" lon="2.18807">
        <ele>240.47</ele>
        <time>2021-05-17T14:07:18Z</time>
      </trkpt>
      <trkpt lat="44.14473" lon="2.18817">
        <ele>237.58</ele>
        <time>2021-05-17T14:07:36Z</time>
      </trkpt>
      <trkpt lat="44.14468" lon="2.18827">
        <ele>236.62</ele>
        <time>2021-05-17T14:07:54Z</time>
      </trkpt>
      <trkpt lat="44.14468" lon="2.18829">
        <ele>236.62</ele>
        <time>2021-05-17T14:08:10Z</time>
      </trkpt>
      <trkpt lat="44.1446" lon="2.18826">
        <ele>234.7</ele>
        <time>2021-05-17T14:08:24Z</time>
      </trkpt>
      <trkpt lat="44.14443" lon="2.18834">
        <ele>233.26</ele>
        <time>2021-05-17T14:08:42Z</time>
      </trkpt>
      <trkpt lat="44.1443" lon="2.18851">
        <ele>231.81</ele>
        <time>2021-05-17T14:08:59Z</time>
      </trkpt>
      <trkpt lat="44.14418" lon="2.18853">
        <ele>230.37</ele>
        <time>2021-05-17T14:09:13Z</time>
      </trkpt>
      <trkpt lat="44.14409" lon="2.18838">
        <ele>229.89</ele>
        <time>2021-05-17T14:09:29Z</time>
      </trkpt>
      <trkpt lat="44.14397" lon="2.18814">
        <ele>229.89</ele>
        <time>2021-05-17T14:09:46Z</time>
      </trkpt>
      <trkpt lat="44.14392" lon="2.18803">
        <ele>229.89</ele>
        <time>2021-05-17T14:09:55Z</time>
      </trkpt>
      <trkpt lat="44.14381" lon="2.18781">
        <ele>229.89</ele>
        <time>2021-05-17T14:10:12Z</time>
      </trkpt>
      <trkpt lat="44.14372" lon="2.18761">
        <ele>229.89</ele>
        <time>2021-05-17T14:10:29Z</time>
      </trkpt>
      <trkpt lat="44.14361" lon="2.18734">
        <ele>229.89</ele>
        <time>2021-05-17T14:10:47Z</time>
      </trkpt>
      <trkpt lat="44.14352" lon="2.18715">
        <ele>229.41</ele>
        <time>2021-05-17T14:11:02Z</time>
      </trkpt>
      <trkpt lat="44.14345" lon="2.18697">
        <ele>229.41</ele>
        <time>2021-05-17T14:11:17Z</time>
      </trkpt>
      <trkpt lat="44.14334" lon="2.18671">
        <ele>230.37</ele>
        <time>2021-05-17T14:11:35Z</time>
      </trkpt>
      <trkpt lat="44.14324" lon="2.18651">
        <ele>230.37</ele>
        <time>2021-05-17T14:11:53Z</time>
      </trkpt>
      <trkpt lat="44.14314" lon="2.18628">
        <ele>230.37</ele>
        <time>2021-05-17T14:12:10Z</time>
      </trkpt>
      <trkpt lat="44.14302" lon="2.18607">
        <ele>230.37</ele>
        <time>2021-05-17T14:12:25Z</time>
      </trkpt>
      <trkpt lat="44.1429" lon="2.18588">
        <ele>229.89</ele>
        <time>2021-05-17T14:12:42Z</time>
      </trkpt>
      <trkpt lat="44.14279" lon="2.18573">
        <ele>229.89</ele>
        <time>2021-05-17T14:12:56Z</time>
      </trkpt>
      <trkpt lat="44.14266" lon="2.18555">
        <ele>229.89</ele>
        <time>2021-05-17T14:13:13Z</time>
      </trkpt>
      <trkpt lat="44.14254" lon="2.18536">
        <ele>229.41</ele>
        <time>2021-05-17T14:13:27Z</time>
      </trkpt>
      <trkpt lat="44.14247" lon="2.18516">
        <ele>229.41</ele>
        <time>2021-05-17T14:13:43Z</time>
      </trkpt>
      <trkpt lat="44.14241" lon="2.18497">
        <ele>229.89</ele>
        <time>2021-05-17T14:14:00Z</time>
      </trkpt>
      <trkpt lat="44.14235" lon="2.1847">
        <ele>229.41</ele>
        <time>2021-05-17T14:14:16Z</time>
      </trkpt>
      <trkpt lat="44.14234" lon="2.18441">
        <ele>229.41</ele>
        <time>2021-05-17T14:14:33Z</time>
      </trkpt>
      <trkpt lat="44.14235" lon="2.18416">
        <ele>229.41</ele>
        <time>2021-05-17T14:14:50Z</time>
      </trkpt>
      <trkpt lat="44.14238" lon="2.18392">
        <ele>229.89</ele>
        <time>2021-05-17T14:15:07Z</time>
      </trkpt>
      <trkpt lat="44.14238" lon="2.18368">
        <ele>230.37</ele>
        <time>2021-05-17T14:15:24Z</time>
      </trkpt>
      <trkpt lat="44.14239" lon="2.18341">
        <ele>230.85</ele>
        <time>2021-05-17T14:15:41Z</time>
      </trkpt>
      <trkpt lat="44.14244" lon="2.18315">
        <ele>232.78</ele>
        <time>2021-05-17T14:15:59Z</time>
      </trkpt>
      <trkpt lat="44.14249" lon="2.18288">
        <ele>235.18</ele>
        <time>2021-05-17T14:16:17Z</time>
      </trkpt>
      <trkpt lat="44.14254" lon="2.18273">
        <ele>237.58</ele>
        <time>2021-05-17T14:16:31Z</time>
      </trkpt>
      <trkpt lat="44.14254" lon="2.18251">
        <ele>239.99</ele>
        <time>2021-05-17T14:16:47Z</time>
      </trkpt>
      <trkpt lat="44.14252" lon="2.18231">
        <ele>239.99</ele>
        <time>2021-05-17T14:17:02Z</time>
      </trkpt>
      <trkpt lat="44.14252" lon="2.18225">
        <ele>239.02</ele>
        <time>2021-05-17T14:17:06Z</time>
      </trkpt>
      <trkpt lat="44.14253" lon="2.18205">
        <ele>237.58</ele>
        <time>2021-05-17T14:17:22Z</time>
      </trkpt>
      <trkpt lat="44.14247" lon="2.18178">
        <ele>236.14</ele>
        <time>2021-05-17T14:17:40Z</time>
      </trkpt>
      <trkpt lat="44.1424" lon="2.18149">
        <ele>235.18</ele>
        <time>2021-05-17T14:17:57Z</time>
      </trkpt>
      <trkpt lat="44.14232" lon="2.18119">
        <ele>237.1</ele>
        <time>2021-05-17T14:18:15Z</time>
      </trkpt>
      <trkpt lat="44.14219" lon="2.18098">
        <ele>235.66</ele>
        <time>2021-05-17T14:18:32Z</time>
      </trkpt>
      <trkpt lat="44.14219" lon="2.18097">
        <ele>235.66</ele>
        <time>2021-05-17T14:18:33Z</time>
      </trkpt>
      <trkpt lat="44.14205" lon="2.18082">
        <ele>234.7</ele>
        <time>2021-05-17T14:18:49Z</time>
      </trkpt>
      <trkpt lat="44.14187" lon="2.18064">
        <ele>234.22</ele>
        <time>2021-05-17T14:19:05Z</time>
      </trkpt>
      <trkpt lat="44.1417" lon="2.18061">
        <ele>234.22</ele>
        <time>2021-05-17T14:19:19Z</time>
      </trkpt>
      <trkpt lat="44.14157" lon="2.18061">
        <ele>233.74</ele>
        <time>2021-05-17T14:19:36Z</time>
      </trkpt>
      <trkpt lat="44.14139" lon="2.18069">
        <ele>233.74</ele>
        <time>2021-05-17T14:19:51Z</time>
      </trkpt>
      <trkpt lat="44.14121" lon="2.18072">
        <ele>235.66</ele>
        <time>2021-05-17T14:20:08Z</time>
      </trkpt>
      <trkpt lat="44.14117" lon="2.18069">
        <ele>236.14</ele>
        <time>2021-05-17T14:20:13Z</time>
      </trkpt>
      <trkpt lat="44.14097" lon="2.18065">
        <ele>236.14</ele>
        <time>2021-05-17T14:20:30Z</time>
      </trkpt>
      <trkpt lat="44.14085" lon="2.18059">
        <ele>237.58</ele>
        <time>2021-05-17T14:20:44Z</time>
      </trkpt>
      <trkpt lat="44.14071" lon="2.18052">
        <ele>237.58</ele>
        <time>2021-05-17T14:21:00Z</time>
      </trkpt>
      <trkpt lat="44.14062" lon="2.18049">
        <ele>236.14</ele>
        <time>2021-05-17T14:21:10Z</time>
      </trkpt>
      <trkpt lat="44.14046" lon="2.18043">
        <ele>234.7</ele>
        <time>2021-05-17T14:21:25Z</time>
      </trkpt>
      <trkpt lat="44.14031" lon="2.18036">
        <ele>234.7</ele>
        <time>2021-05-17T14:21:40Z</time>
      </trkpt>
      <trkpt lat="44.14012" lon="2.18032">
        <ele>234.22</ele>
        <time>2021-05-17T14:21:58Z</time>
      </trkpt>
      <trkpt lat="44.13993" lon="2.18038">
        <ele>233.74</ele>
        <time>2021-05-17T14:22:14Z</time>
      </trkpt>
      <trkpt lat="44.13972" lon="2.18047">
        <ele>233.26</ele>
        <time>2021-05-17T14:22:31Z</time>
      </trkpt>
      <trkpt lat="44.13951" lon="2.18056">
        <ele>232.78</ele>
        <time>2021-05-17T14:22:48Z</time>
      </trkpt>
      <trkpt lat="44.13935" lon="2.18065">
        <ele>232.3</ele>
        <time>2021-05-17T14:23:01Z</time>
      </trkpt>
      <trkpt lat="44.13918" lon="2.18074">
        <ele>231.81</ele>
        <time>2021-05-17T14:23:19Z</time>
      </trkpt>
      <trkpt lat="44.13903" lon="2.1808">
        <ele>231.33</ele>
        <time>2021-05-17T14:23:34Z</time>
      </trkpt>
      <trkpt lat="44.13885" lon="2.18086">
        <ele>230.85</ele>
        <time>2021-05-17T14:23:49Z</time>
      </trkpt>
      <trkpt lat="44.13862" lon="2.181">
        <ele>229.41</ele>
        <time>2021-05-17T14:24:07Z</time>
      </trkpt>
      <trkpt lat="44.13848" lon="2.18108">
        <ele>228.93</ele>
        <time>2021-05-17T14:24:22Z</time>
      </trkpt>
      <trkpt lat="44.13839" lon="2.18107">
        <ele>228.93</ele>
        <time>2021-05-17T14:24:39Z</time>
      </trkpt>
      <trkpt lat="44.13835" lon="2.1811">
        <ele>228.93</ele>
        <time>2021-05-17T14:24:53Z</time>
      </trkpt>
      <trkpt lat="44.13825" lon="2.18125">
        <ele>228.93</ele>
        <time>2021-05-17T14:25:07Z</time>
      </trkpt>
      <trkpt lat="44.13822" lon="2.18136">
        <ele>228.45</ele>
        <time>2021-05-17T14:25:13Z</time>
      </trkpt>
      <trkpt lat="44.13818" lon="2.18148">
        <ele>227.97</ele>
        <time>2021-05-17T14:25:20Z</time>
      </trkpt>
      <trkpt lat="44.13816" lon="2.18156">
        <ele>227.97</ele>
        <time>2021-05-17T14:25:24Z</time>
      </trkpt>
      <trkpt lat="44.13807" lon="2.18188">
        <ele>227.49</ele>
        <time>2021-05-17T14:25:45Z</time>
      </trkpt>
      <trkpt lat="44.13808" lon="2.1819">
        <ele>227.49</ele>
        <time>2021-05-17T14:25:46Z</time>
      </trkpt>
      <trkpt lat="44.13812" lon="2.18198">
        <ele>227.49</ele>
        <time>2021-05-17T14:25:54Z</time>
      </trkpt>
      <trkpt lat="44.1382" lon="2.18212">
        <ele>227.49</ele>
        <time>2021-05-17T14:26:10Z</time>
      </trkpt>
      <trkpt lat="44.13823" lon="2.18209">
        <ele>227.97</ele>
        <time>2021-05-17T14:26:23Z</time>
      </trkpt>
      <trkpt lat="44.13821" lon="2.18208">
        <ele>227.97</ele>
        <time>2021-05-17T14:26:46Z</time>
      </trkpt>
      <trkpt lat="44.13821" lon="2.18207">
        <ele>227.97</ele>
        <time>2021-05-17T14:27:02Z</time>
      </trkpt>
      <trkpt lat="44.13819" lon="2.18211">
        <ele>227.97</ele>
        <time>2021-05-17T14:27:23Z</time>
      </trkpt>
      <trkpt lat="44.13808" lon="2.18207">
        <ele>227.97</ele>
        <time>2021-05-17T14:27:38Z</time>
      </trkpt>
      <trkpt lat="44.13804" lon="2.18209">
        <ele>227.97</ele>
        <time>2021-05-17T14:27:42Z</time>
      </trkpt>
      <trkpt lat="44.13797" lon="2.18236">
        <ele>228.45</ele>
        <time>2021-05-17T14:28:00Z</time>
      </trkpt>
      <trkpt lat="44.13788" lon="2.18256">
        <ele>231.33</ele>
        <time>2021-05-17T14:28:16Z</time>
      </trkpt>
      <trkpt lat="44.13789" lon="2.1826">
        <ele>231.33</ele>
        <time>2021-05-17T14:28:19Z</time>
      </trkpt>
      <trkpt lat="44.13806" lon="2.18272">
        <ele>233.26</ele>
        <time>2021-05-17T14:28:35Z</time>
      </trkpt>
      <trkpt lat="44.13825" lon="2.18286">
        <ele>233.74</ele>
        <time>2021-05-17T14:28:54Z</time>
      </trkpt>
      <trkpt lat="44.13844" lon="2.183">
        <ele>231.81</ele>
        <time>2021-05-17T14:29:14Z</time>
      </trkpt>
      <trkpt lat="44.13846" lon="2.18303">
        <ele>231.81</ele>
        <time>2021-05-17T14:29:17Z</time>
      </trkpt>
      <trkpt lat="44.13847" lon="2.18311">
        <ele>231.33</ele>
        <time>2021-05-17T14:29:22Z</time>
      </trkpt>
      <trkpt lat="44.13845" lon="2.18341">
        <ele>231.33</ele>
        <time>2021-05-17T14:29:42Z</time>
      </trkpt>
      <trkpt lat="44.13854" lon="2.18369">
        <ele>233.26</ele>
        <time>2021-05-17T14:30:01Z</time>
      </trkpt>
      <trkpt lat="44.13863" lon="2.18392">
        <ele>235.18</ele>
        <time>2021-05-17T14:30:17Z</time>
      </trkpt>
      <trkpt lat="44.13869" lon="2.18415">
        <ele>237.1</ele>
        <time>2021-05-17T14:30:33Z</time>
      </trkpt>
      <trkpt lat="44.1387" lon="2.18419">
        <ele>237.1</ele>
        <time>2021-05-17T14:30:36Z</time>
      </trkpt>
      <trkpt lat="44.13873" lon="2.18433">
        <ele>239.02</ele>
        <time>2021-05-17T14:30:46Z</time>
      </trkpt>
      <trkpt lat="44.13874" lon="2.18444">
        <ele>240.47</ele>
        <time>2021-05-17T14:30:53Z</time>
      </trkpt>
      <trkpt lat="44.13877" lon="2.18474">
        <ele>241.43</ele>
        <time>2021-05-17T14:31:13Z</time>
      </trkpt>
      <trkpt lat="44.13877" lon="2.18483">
        <ele>242.39</ele>
        <time>2021-05-17T14:31:19Z</time>
      </trkpt>
      <trkpt lat="44.13876" lon="2.18509">
        <ele>244.31</ele>
        <time>2021-05-17T14:31:37Z</time>
      </trkpt>
      <trkpt lat="44.13875" lon="2.18512">
        <ele>244.31</ele>
        <time>2021-05-17T14:31:39Z</time>
      </trkpt>
      <trkpt lat="44.13869" lon="2.18536">
        <ele>246.23</ele>
        <time>2021-05-17T14:31:56Z</time>
      </trkpt>
      <trkpt lat="44.13861" lon="2.18563">
        <ele>247.68</ele>
        <time>2021-05-17T14:32:13Z</time>
      </trkpt>
      <trkpt lat="44.13851" lon="2.18595">
        <ele>250.56</ele>
        <time>2021-05-17T14:32:33Z</time>
      </trkpt>
      <trkpt lat="44.13844" lon="2.18622">
        <ele>251.52</ele>
        <time>2021-05-17T14:32:51Z</time>
      </trkpt>
      <trkpt lat="44.13838" lon="2.18645">
        <ele>252.48</ele>
        <time>2021-05-17T14:33:07Z</time>
      </trkpt>
      <trkpt lat="44.13835" lon="2.18667">
        <ele>253.93</ele>
        <time>2021-05-17T14:33:23Z</time>
      </trkpt>
      <trkpt lat="44.13832" lon="2.18692">
        <ele>255.37</ele>
        <time>2021-05-17T14:33:39Z</time>
      </trkpt>
      <trkpt lat="44.13828" lon="2.18721">
        <ele>256.81</ele>
        <time>2021-05-17T14:33:57Z</time>
      </trkpt>
      <trkpt lat="44.13823" lon="2.18748">
        <ele>257.77</ele>
        <time>2021-05-17T14:34:14Z</time>
      </trkpt>
      <trkpt lat="44.13818" lon="2.18771">
        <ele>259.69</ele>
        <time>2021-05-17T14:34:29Z</time>
      </trkpt>
      <trkpt lat="44.13815" lon="2.18801">
        <ele>262.58</ele>
        <time>2021-05-17T14:34:47Z</time>
      </trkpt>
      <trkpt lat="44.13824" lon="2.18825">
        <ele>264.02</ele>
        <time>2021-05-17T14:35:04Z</time>
      </trkpt>
      <trkpt lat="44.13836" lon="2.18838">
        <ele>265.46</ele>
        <time>2021-05-17T14:35:19Z</time>
      </trkpt>
      <trkpt lat="44.13834" lon="2.1881">
        <ele>267.38</ele>
        <time>2021-05-17T14:35:38Z</time>
      </trkpt>
      <trkpt lat="44.13836" lon="2.18785">
        <ele>268.83</ele>
        <time>2021-05-17T14:35:55Z</time>
      </trkpt>
      <trkpt lat="44.13837" lon="2.18781">
        <ele>269.79</ele>
        <time>2021-05-17T14:35:58Z</time>
      </trkpt>
      <trkpt lat="44.13841" lon="2.18769">
        <ele>270.75</ele>
        <time>2021-05-17T14:36:07Z</time>
      </trkpt>
      <trkpt lat="44.1385" lon="2.18749">
        <ele>271.71</ele>
        <time>2021-05-17T14:36:23Z</time>
      </trkpt>
      <trkpt lat="44.13854" lon="2.18743">
        <ele>272.19</ele>
        <time>2021-05-17T14:36:28Z</time>
      </trkpt>
      <trkpt lat="44.13862" lon="2.18726">
        <ele>274.11</ele>
        <time>2021-05-17T14:36:41Z</time>
      </trkpt>
      <trkpt lat="44.13865" lon="2.18718">
        <ele>274.59</ele>
        <time>2021-05-17T14:36:47Z</time>
      </trkpt>
      <trkpt lat="44.13877" lon="2.18693">
        <ele>276.04</ele>
        <time>2021-05-17T14:37:06Z</time>
      </trkpt>
      <trkpt lat="44.13887" lon="2.18672">
        <ele>277.48</ele>
        <time>2021-05-17T14:37:22Z</time>
      </trkpt>
      <trkpt lat="44.1389" lon="2.18667">
        <ele>277.96</ele>
        <time>2021-05-17T14:37:26Z</time>
      </trkpt>
      <trkpt lat="44.13896" lon="2.18658">
        <ele>278.92</ele>
        <time>2021-05-17T14:37:33Z</time>
      </trkpt>
      <trkpt lat="44.13897" lon="2.18656">
        <ele>279.4</ele>
        <time>2021-05-17T14:37:35Z</time>
      </trkpt>
      <trkpt lat="44.139" lon="2.18648">
        <ele>280.36</ele>
        <time>2021-05-17T14:37:50Z</time>
      </trkpt>
      <trkpt lat="44.1391" lon="2.18631">
        <ele>280.84</ele>
        <time>2021-05-17T14:38:05Z</time>
      </trkpt>
      <trkpt lat="44.13924" lon="2.18609">
        <ele>282.28</ele>
        <time>2021-05-17T14:38:22Z</time>
      </trkpt>
      <trkpt lat="44.13939" lon="2.18586">
        <ele>284.69</ele>
        <time>2021-05-17T14:38:43Z</time>
      </trkpt>
      <trkpt lat="44.13947" lon="2.18576">
        <ele>285.65</ele>
        <time>2021-05-17T14:38:53Z</time>
      </trkpt>
      <trkpt lat="44.13954" lon="2.18568">
        <ele>289.01</ele>
        <time>2021-05-17T14:39:01Z</time>
      </trkpt>
      <trkpt lat="44.13955" lon="2.18567">
        <ele>288.05</ele>
        <time>2021-05-17T14:39:02Z</time>
      </trkpt>
      <trkpt lat="44.13976" lon="2.18555">
        <ele>288.05</ele>
        <time>2021-05-17T14:39:20Z</time>
      </trkpt>
      <trkpt lat="44.13979" lon="2.18555">
        <ele>289.49</ele>
        <time>2021-05-17T14:39:23Z</time>
      </trkpt>
      <trkpt lat="44.1399" lon="2.18558">
        <ele>290.94</ele>
        <time>2021-05-17T14:39:36Z</time>
      </trkpt>
      <trkpt lat="44.13994" lon="2.18564">
        <ele>291.42</ele>
        <time>2021-05-17T14:39:42Z</time>
      </trkpt>
      <trkpt lat="44.13997" lon="2.18586">
        <ele>293.82</ele>
        <time>2021-05-17T14:39:57Z</time>
      </trkpt>
      <trkpt lat="44.14" lon="2.18608">
        <ele>296.22</ele>
        <time>2021-05-17T14:40:12Z</time>
      </trkpt>
      <trkpt lat="44.14003" lon="2.18627">
        <ele>298.63</ele>
        <time>2021-05-17T14:40:26Z</time>
      </trkpt>
      <trkpt lat="44.14012" lon="2.1866">
        <ele>301.03</ele>
        <time>2021-05-17T14:40:47Z</time>
      </trkpt>
      <trkpt lat="44.14021" lon="2.18687">
        <ele>302.47</ele>
        <time>2021-05-17T14:41:05Z</time>
      </trkpt>
      <trkpt lat="44.1403" lon="2.18714">
        <ele>303.91</ele>
        <time>2021-05-17T14:41:24Z</time>
      </trkpt>
      <trkpt lat="44.14039" lon="2.18738">
        <ele>305.36</ele>
        <time>2021-05-17T14:41:40Z</time>
      </trkpt>
      <trkpt lat="44.1405" lon="2.18763">
        <ele>306.32</ele>
        <time>2021-05-17T14:41:57Z</time>
      </trkpt>
      <trkpt lat="44.14062" lon="2.18789">
        <ele>307.76</ele>
        <time>2021-05-17T14:42:15Z</time>
      </trkpt>
      <trkpt lat="44.14076" lon="2.18815">
        <ele>309.2</ele>
        <time>2021-05-17T14:42:34Z</time>
      </trkpt>
      <trkpt lat="44.14087" lon="2.18838">
        <ele>311.6</ele>
        <time>2021-05-17T14:42:52Z</time>
      </trkpt>
      <trkpt lat="44.14097" lon="2.18857">
        <ele>313.05</ele>
        <time>2021-05-17T14:43:07Z</time>
      </trkpt>
      <trkpt lat="44.14098" lon="2.18858">
        <ele>313.53</ele>
        <time>2021-05-17T14:43:08Z</time>
      </trkpt>
      <trkpt lat="44.14115" lon="2.1888">
        <ele>314.97</ele>
        <time>2021-05-17T14:43:28Z</time>
      </trkpt>
      <trkpt lat="44.1413" lon="2.18906">
        <ele>316.41</ele>
        <time>2021-05-17T14:43:49Z</time>
      </trkpt>
      <trkpt lat="44.14146" lon="2.1894">
        <ele>318.33</ele>
        <time>2021-05-17T14:44:12Z</time>
      </trkpt>
      <trkpt lat="44.14157" lon="2.18967">
        <ele>318.81</ele>
        <time>2021-05-17T14:44:31Z</time>
      </trkpt>
      <trkpt lat="44.14163" lon="2.18977">
        <ele>319.78</ele>
        <time>2021-05-17T14:44:47Z</time>
      </trkpt>
      <trkpt lat="44.14166" lon="2.18992">
        <ele>319.78</ele>
        <time>2021-05-17T14:45:05Z</time>
      </trkpt>
      <trkpt lat="44.1417" lon="2.19021">
        <ele>321.22</ele>
        <time>2021-05-17T14:45:22Z</time>
      </trkpt>
      <trkpt lat="44.14173" lon="2.19048">
        <ele>321.7</ele>
        <time>2021-05-17T14:45:39Z</time>
      </trkpt>
      <trkpt lat="44.14176" lon="2.19081">
        <ele>322.66</ele>
        <time>2021-05-17T14:45:59Z</time>
      </trkpt>
      <trkpt lat="44.1418" lon="2.19109">
        <ele>323.14</ele>
        <time>2021-05-17T14:46:15Z</time>
      </trkpt>
      <trkpt lat="44.14187" lon="2.19147">
        <ele>324.1</ele>
        <time>2021-05-17T14:46:37Z</time>
      </trkpt>
      <trkpt lat="44.14193" lon="2.19177">
        <ele>324.58</ele>
        <time>2021-05-17T14:46:55Z</time>
      </trkpt>
      <trkpt lat="44.14199" lon="2.19203">
        <ele>325.06</ele>
        <time>2021-05-17T14:47:11Z</time>
      </trkpt>
      <trkpt lat="44.14207" lon="2.19231">
        <ele>325.54</ele>
        <time>2021-05-17T14:47:30Z</time>
      </trkpt>
      <trkpt lat="44.14215" lon="2.1926">
        <ele>326.02</ele>
        <time>2021-05-17T14:47:48Z</time>
      </trkpt>
      <trkpt lat="44.14221" lon="2.19293">
        <ele>326.5</ele>
        <time>2021-05-17T14:48:09Z</time>
      </trkpt>
      <trkpt lat="44.14226" lon="2.19325">
        <ele>326.99</ele>
        <time>2021-05-17T14:48:27Z</time>
      </trkpt>
      <trkpt lat="44.14232" lon="2.19362">
        <ele>327.47</ele>
        <time>2021-05-17T14:48:49Z</time>
      </trkpt>
      <trkpt lat="44.14232" lon="2.19371">
        <ele>328.43</ele>
        <time>2021-05-17T14:49:04Z</time>
      </trkpt>
      <trkpt lat="44.14236" lon="2.19391">
        <ele>329.39</ele>
        <time>2021-05-17T14:49:18Z</time>
      </trkpt>
      <trkpt lat="44.14238" lon="2.1942">
        <ele>329.87</ele>
        <time>2021-05-17T14:49:36Z</time>
      </trkpt>
      <trkpt lat="44.14237" lon="2.19454">
        <ele>330.83</ele>
        <time>2021-05-17T14:49:57Z</time>
      </trkpt>
      <trkpt lat="44.14235" lon="2.19485">
        <ele>331.79</ele>
        <time>2021-05-17T14:50:15Z</time>
      </trkpt>
      <trkpt lat="44.14231" lon="2.1952">
        <ele>331.79</ele>
        <time>2021-05-17T14:50:34Z</time>
      </trkpt>
      <trkpt lat="44.14228" lon="2.19537">
        <ele>330.35</ele>
        <time>2021-05-17T14:50:46Z</time>
      </trkpt>
      <trkpt lat="44.14221" lon="2.1957">
        <ele>329.39</ele>
        <time>2021-05-17T14:51:08Z</time>
      </trkpt>
      <trkpt lat="44.14218" lon="2.19603">
        <ele>326.99</ele>
        <time>2021-05-17T14:51:29Z</time>
      </trkpt>
      <trkpt lat="44.14217" lon="2.19634">
        <ele>324.58</ele>
        <time>2021-05-17T14:51:49Z</time>
      </trkpt>
      <trkpt lat="44.14219" lon="2.19664">
        <ele>322.66</ele>
        <time>2021-05-17T14:52:09Z</time>
      </trkpt>
      <trkpt lat="44.14216" lon="2.19696">
        <ele>321.22</ele>
        <time>2021-05-17T14:52:27Z</time>
      </trkpt>
      <trkpt lat="44.14216" lon="2.1971">
        <ele>320.74</ele>
        <time>2021-05-17T14:52:36Z</time>
      </trkpt>
      <trkpt lat="44.14214" lon="2.19733">
        <ele>319.78</ele>
        <time>2021-05-17T14:52:50Z</time>
      </trkpt>
      <trkpt lat="44.14213" lon="2.1975">
        <ele>319.78</ele>
        <time>2021-05-17T14:52:59Z</time>
      </trkpt>
      <trkpt lat="44.14214" lon="2.19778">
        <ele>318.33</ele>
        <time>2021-05-17T14:53:16Z</time>
      </trkpt>
      <trkpt lat="44.14211" lon="2.19803">
        <ele>319.3</ele>
        <time>2021-05-17T14:53:32Z</time>
      </trkpt>
      <trkpt lat="44.14211" lon="2.19803">
        <ele>319.3</ele>
        <time>2021-05-17T14:54:04Z</time>
      </trkpt>
      <trkpt lat="44.14211" lon="2.19802">
        <ele>318.33</ele>
        <time>2021-05-17T14:54:33Z</time>
      </trkpt>
    </trkseg>
  </trk>
</gpx>